<?xml version="1.0" encoding="UTF-8" standalone="no" ?><gpx xmlns="http://www.topografix.com/GPX/1/1" xmlns:gpxx="http://www.garmin.com/xmlschemas/GpxExtensions/v3" xmlns:wptx1="http://www.garmin.com/xmlschemas/WaypointExtension/v1" xmlns:gpxtpx="http://www.garmin.com/xmlschemas/TrackPointExtension/v1" creator="GuideVTT.com" version="1.1" xmlns:xsi="http://www.w3.org/2001/XMLSchema-instance" xsi:schemaLocation="http://www.topografix.com/GPX/1/1 http://www.topografix.com/GPX/1/1/gpx.xsd http://www.garmin.com/xmlschemas/GpxExtensions/v3 http://www8.garmin.com/xmlschemas/GpxExtensionsv3.xsd http://www.garmin.com/xmlschemas/WaypointExtension/v1 http://www8.garmin.com/xmlschemas/WaypointExtensionv1.xsd http://www.garmin.com/xmlschemas/TrackPointExtension/v1 http://www.garmin.com/xmlschemas/TrackPointExtensionv1.xsd">
<metadata><link href="http://www.garmin.com"><text>Garmin International</text></link><time>2013-06-22T15:13:50Z</time></metadata>
<trk><name>rp2015_28.gpx</name><extensions><gpxx:TrackExtension><gpxx:DisplayColor>Cyan</gpxx:DisplayColor></gpxx:TrackExtension></extensions><trkseg>
<trkpt lat="46.20644" lon="7.43977"><ele>1465</ele><time>2015-09-08T10:32:40Z</time></trkpt>
<trkpt lat="46.20644" lon="7.43977"><ele>1464.6</ele><time>2015-09-08T10:32:41Z</time></trkpt>
<trkpt lat="46.20654" lon="7.43995"><ele>1459.2</ele><time>2015-09-08T10:33:01Z</time></trkpt>
<trkpt lat="46.20659" lon="7.43999"><ele>1459.8</ele><time>2015-09-08T10:33:04Z</time></trkpt>
<trkpt lat="46.20666" lon="7.44001"><ele>1460.2</ele><time>2015-09-08T10:33:08Z</time></trkpt>
<trkpt lat="46.20669" lon="7.44002"><ele>1459.8</ele><time>2015-09-08T10:33:09Z</time></trkpt>
<trkpt lat="46.20673" lon="7.44003"><ele>1459.6</ele><time>2015-09-08T10:33:11Z</time></trkpt>
<trkpt lat="46.20691" lon="7.43994"><ele>1456.4</ele><time>2015-09-08T10:33:18Z</time></trkpt>
<trkpt lat="46.20704" lon="7.43991"><ele>1454.2</ele><time>2015-09-08T10:33:23Z</time></trkpt>
<trkpt lat="46.20713" lon="7.4398"><ele>1451.4</ele><time>2015-09-08T10:33:29Z</time></trkpt>
<trkpt lat="46.20733" lon="7.43969"><ele>1445.2</ele><time>2015-09-08T10:33:38Z</time></trkpt>
<trkpt lat="46.20739" lon="7.43964"><ele>1443</ele><time>2015-09-08T10:33:40Z</time></trkpt>
<trkpt lat="46.20747" lon="7.43961"><ele>1442.6</ele><time>2015-09-08T10:33:42Z</time></trkpt>
<trkpt lat="46.20768" lon="7.4397"><ele>1439.6</ele><time>2015-09-08T10:33:47Z</time></trkpt>
<trkpt lat="46.20788" lon="7.43979"><ele>1436.2</ele><time>2015-09-08T10:33:52Z</time></trkpt>
<trkpt lat="46.20806" lon="7.43982"><ele>1433.4</ele><time>2015-09-08T10:33:56Z</time></trkpt>
<trkpt lat="46.20826" lon="7.43982"><ele>1424.8</ele><time>2015-09-08T10:34:00Z</time></trkpt>
<trkpt lat="46.20847" lon="7.43985"><ele>1416.4</ele><time>2015-09-08T10:34:04Z</time></trkpt>
<trkpt lat="46.20867" lon="7.4398"><ele>1405.2</ele><time>2015-09-08T10:34:08Z</time></trkpt>
<trkpt lat="46.20891" lon="7.43973"><ele>1393.6</ele><time>2015-09-08T10:34:12Z</time></trkpt>
<trkpt lat="46.20898" lon="7.43972"><ele>1391.6</ele><time>2015-09-08T10:34:13Z</time></trkpt>
<trkpt lat="46.20922" lon="7.43972"><ele>1383.4</ele><time>2015-09-08T10:34:16Z</time></trkpt>
<trkpt lat="46.20938" lon="7.43969"><ele>1377.6</ele><time>2015-09-08T10:34:18Z</time></trkpt>
<trkpt lat="46.20961" lon="7.43951"><ele>1370.6</ele><time>2015-09-08T10:34:21Z</time></trkpt>
<trkpt lat="46.20976" lon="7.43935"><ele>1365.4</ele><time>2015-09-08T10:34:23Z</time></trkpt>
<trkpt lat="46.20993" lon="7.4392"><ele>1360.8</ele><time>2015-09-08T10:34:25Z</time></trkpt>
<trkpt lat="46.21009" lon="7.43904"><ele>1356.4</ele><time>2015-09-08T10:34:27Z</time></trkpt>
<trkpt lat="46.21025" lon="7.43888"><ele>1352.6</ele><time>2015-09-08T10:34:29Z</time></trkpt>
<trkpt lat="46.2104" lon="7.43872"><ele>1349.8</ele><time>2015-09-08T10:34:31Z</time></trkpt>
<trkpt lat="46.21077" lon="7.43823"><ele>1425.8</ele><time>2015-09-08T10:34:33Z</time></trkpt>
<trkpt lat="46.21091" lon="7.43806"><ele>1443.8</ele><time>2015-09-08T10:34:35Z</time></trkpt>
<trkpt lat="46.21106" lon="7.43784"><ele>1445</ele><time>2015-09-08T10:34:38Z</time></trkpt>
<trkpt lat="46.21123" lon="7.43771"><ele>1450.6</ele><time>2015-09-08T10:34:42Z</time></trkpt>
<trkpt lat="46.21133" lon="7.43764"><ele>1450</ele><time>2015-09-08T10:34:46Z</time></trkpt>
<trkpt lat="46.21138" lon="7.43759"><ele>1450.8</ele><time>2015-09-08T10:34:49Z</time></trkpt>
<trkpt lat="46.21139" lon="7.43757"><ele>1450.6</ele><time>2015-09-08T10:34:50Z</time></trkpt>
<trkpt lat="46.21141" lon="7.43756"><ele>1450.2</ele><time>2015-09-08T10:34:51Z</time></trkpt>
<trkpt lat="46.2115" lon="7.43755"><ele>1450.2</ele><time>2015-09-08T10:34:56Z</time></trkpt>
<trkpt lat="46.21162" lon="7.43748"><ele>1450.8</ele><time>2015-09-08T10:35:03Z</time></trkpt>
<trkpt lat="46.21166" lon="7.43746"><ele>1452.6</ele><time>2015-09-08T10:35:05Z</time></trkpt>
<trkpt lat="46.21184" lon="7.4374"><ele>1455.4</ele><time>2015-09-08T10:35:17Z</time></trkpt>
<trkpt lat="46.21185" lon="7.4374"><ele>1456</ele><time>2015-09-08T10:35:18Z</time></trkpt>
<trkpt lat="46.21202" lon="7.43726"><ele>1460</ele><time>2015-09-08T10:35:30Z</time></trkpt>
<trkpt lat="46.21217" lon="7.4371"><ele>1463.2</ele><time>2015-09-08T10:35:42Z</time></trkpt>
<trkpt lat="46.21232" lon="7.43696"><ele>1464.8</ele><time>2015-09-08T10:35:54Z</time></trkpt>
<trkpt lat="46.21248" lon="7.4368"><ele>1467.4</ele><time>2015-09-08T10:36:07Z</time></trkpt>
<trkpt lat="46.21263" lon="7.43665"><ele>1469.4</ele><time>2015-09-08T10:36:19Z</time></trkpt>
<trkpt lat="46.21272" lon="7.43656"><ele>1470.8</ele><time>2015-09-08T10:36:27Z</time></trkpt>
<trkpt lat="46.21283" lon="7.43645"><ele>1472.2</ele><time>2015-09-08T10:36:36Z</time></trkpt>
<trkpt lat="46.21289" lon="7.43638"><ele>1473</ele><time>2015-09-08T10:36:41Z</time></trkpt>
<trkpt lat="46.21305" lon="7.43625"><ele>1474.8</ele><time>2015-09-08T10:36:53Z</time></trkpt>
<trkpt lat="46.21321" lon="7.4361"><ele>1476.8</ele><time>2015-09-08T10:37:05Z</time></trkpt>
<trkpt lat="46.21337" lon="7.43594"><ele>1478.2</ele><time>2015-09-08T10:37:17Z</time></trkpt>
<trkpt lat="46.2135" lon="7.43587"><ele>1478.6</ele><time>2015-09-08T10:37:26Z</time></trkpt>
<trkpt lat="46.21366" lon="7.43573"><ele>1479.2</ele><time>2015-09-08T10:37:38Z</time></trkpt>
<trkpt lat="46.21383" lon="7.43561"><ele>1479.2</ele><time>2015-09-08T10:37:51Z</time></trkpt>
<trkpt lat="46.21399" lon="7.43545"><ele>1480.2</ele><time>2015-09-08T10:38:04Z</time></trkpt>
<trkpt lat="46.21412" lon="7.43531"><ele>1481.8</ele><time>2015-09-08T10:38:14Z</time></trkpt>
<trkpt lat="46.21428" lon="7.43515"><ele>1483.6</ele><time>2015-09-08T10:38:26Z</time></trkpt>
<trkpt lat="46.21429" lon="7.43514"><ele>1483.8</ele><time>2015-09-08T10:38:27Z</time></trkpt>
<trkpt lat="46.21436" lon="7.43509"><ele>1484.8</ele><time>2015-09-08T10:38:32Z</time></trkpt>
<trkpt lat="46.21454" lon="7.43501"><ele>1486.6</ele><time>2015-09-08T10:38:44Z</time></trkpt>
<trkpt lat="46.21473" lon="7.43497"><ele>1487.8</ele><time>2015-09-08T10:38:56Z</time></trkpt>
<trkpt lat="46.21487" lon="7.43501"><ele>1487.6</ele><time>2015-09-08T10:39:06Z</time></trkpt>
<trkpt lat="46.21495" lon="7.43506"><ele>1486.8</ele><time>2015-09-08T10:39:11Z</time></trkpt>
<trkpt lat="46.21498" lon="7.43509"><ele>1486.8</ele><time>2015-09-08T10:39:13Z</time></trkpt>
<trkpt lat="46.21501" lon="7.43512"><ele>1487</ele><time>2015-09-08T10:39:15Z</time></trkpt>
<trkpt lat="46.21515" lon="7.43529"><ele>1491.2</ele><time>2015-09-08T10:39:26Z</time></trkpt>
<trkpt lat="46.21523" lon="7.4354"><ele>1492.8</ele><time>2015-09-08T10:39:34Z</time></trkpt>
<trkpt lat="46.21533" lon="7.43551"><ele>1495.4</ele><time>2015-09-08T10:39:42Z</time></trkpt>
<trkpt lat="46.21537" lon="7.43555"><ele>1496.6</ele><time>2015-09-08T10:39:46Z</time></trkpt>
<trkpt lat="46.21548" lon="7.4356"><ele>1498.2</ele><time>2015-09-08T10:39:54Z</time></trkpt>
<trkpt lat="46.21553" lon="7.43563"><ele>1498.6</ele><time>2015-09-08T10:39:57Z</time></trkpt>
<trkpt lat="46.21559" lon="7.43566"><ele>1499.4</ele><time>2015-09-08T10:40:02Z</time></trkpt>
<trkpt lat="46.21563" lon="7.43566"><ele>1499.6</ele><time>2015-09-08T10:40:04Z</time></trkpt>
<trkpt lat="46.21567" lon="7.43566"><ele>1499.8</ele><time>2015-09-08T10:40:07Z</time></trkpt>
<trkpt lat="46.21569" lon="7.43566"><ele>1499.8</ele><time>2015-09-08T10:40:08Z</time></trkpt>
<trkpt lat="46.21588" lon="7.4357"><ele>1500.6</ele><time>2015-09-08T10:40:21Z</time></trkpt>
<trkpt lat="46.21589" lon="7.4357"><ele>1499.8</ele><time>2015-09-08T10:40:22Z</time></trkpt>
<trkpt lat="46.21596" lon="7.43569"><ele>1499</ele><time>2015-09-08T10:40:26Z</time></trkpt>
<trkpt lat="46.21614" lon="7.4357"><ele>1499</ele><time>2015-09-08T10:40:39Z</time></trkpt>
<trkpt lat="46.21621" lon="7.43573"><ele>1498.4</ele><time>2015-09-08T10:40:44Z</time></trkpt>
<trkpt lat="46.21636" lon="7.43578"><ele>1496</ele><time>2015-09-08T10:40:54Z</time></trkpt>
<trkpt lat="46.21654" lon="7.43583"><ele>1492.4</ele><time>2015-09-08T10:41:07Z</time></trkpt>
<trkpt lat="46.21672" lon="7.43587"><ele>1496.4</ele><time>2015-09-08T10:41:19Z</time></trkpt>
<trkpt lat="46.2169" lon="7.43589"><ele>1501.4</ele><time>2015-09-08T10:41:31Z</time></trkpt>
<trkpt lat="46.21699" lon="7.43592"><ele>1503.2</ele><time>2015-09-08T10:41:37Z</time></trkpt>
<trkpt lat="46.21718" lon="7.43593"><ele>1507.6</ele><time>2015-09-08T10:41:50Z</time></trkpt>
<trkpt lat="46.21728" lon="7.43592"><ele>1508.6</ele><time>2015-09-08T10:41:57Z</time></trkpt>
<trkpt lat="46.21745" lon="7.43588"><ele>1510</ele><time>2015-09-08T10:42:09Z</time></trkpt>
<trkpt lat="46.21759" lon="7.43582"><ele>1511.4</ele><time>2015-09-08T10:42:19Z</time></trkpt>
<trkpt lat="46.21776" lon="7.43571"><ele>1513</ele><time>2015-09-08T10:42:31Z</time></trkpt>
<trkpt lat="46.21794" lon="7.43563"><ele>1513.8</ele><time>2015-09-08T10:42:43Z</time></trkpt>
<trkpt lat="46.2181" lon="7.43551"><ele>1516</ele><time>2015-09-08T10:42:54Z</time></trkpt>
<trkpt lat="46.21827" lon="7.4354"><ele>1519.2</ele><time>2015-09-08T10:43:05Z</time></trkpt>
<trkpt lat="46.2183" lon="7.43538"><ele>1519.6</ele><time>2015-09-08T10:43:07Z</time></trkpt>
<trkpt lat="46.21847" lon="7.43527"><ele>1521.4</ele><time>2015-09-08T10:43:19Z</time></trkpt>
<trkpt lat="46.21857" lon="7.43524"><ele>1522.8</ele><time>2015-09-08T10:43:26Z</time></trkpt>
<trkpt lat="46.2186" lon="7.43523"><ele>1523.2</ele><time>2015-09-08T10:43:28Z</time></trkpt>
<trkpt lat="46.21869" lon="7.43522"><ele>1524.4</ele><time>2015-09-08T10:43:34Z</time></trkpt>
<trkpt lat="46.21884" lon="7.43524"><ele>1527</ele><time>2015-09-08T10:43:43Z</time></trkpt>
<trkpt lat="46.219" lon="7.43533"><ele>1530.2</ele><time>2015-09-08T10:43:54Z</time></trkpt>
<trkpt lat="46.21918" lon="7.43543"><ele>1531.6</ele><time>2015-09-08T10:44:06Z</time></trkpt>
<trkpt lat="46.21934" lon="7.43541"><ele>1534.8</ele><time>2015-09-08T10:44:17Z</time></trkpt>
<trkpt lat="46.21944" lon="7.43538"><ele>1537.4</ele><time>2015-09-08T10:44:24Z</time></trkpt>
<trkpt lat="46.21948" lon="7.43536"><ele>1538.4</ele><time>2015-09-08T10:44:27Z</time></trkpt>
<trkpt lat="46.21957" lon="7.4353"><ele>1540.6</ele><time>2015-09-08T10:44:33Z</time></trkpt>
<trkpt lat="46.21962" lon="7.4353"><ele>1541</ele><time>2015-09-08T10:44:36Z</time></trkpt>
<trkpt lat="46.21969" lon="7.43529"><ele>1541.8</ele><time>2015-09-08T10:44:41Z</time></trkpt>
<trkpt lat="46.21979" lon="7.43527"><ele>1543</ele><time>2015-09-08T10:44:47Z</time></trkpt>
<trkpt lat="46.21989" lon="7.43525"><ele>1544</ele><time>2015-09-08T10:44:53Z</time></trkpt>
<trkpt lat="46.22008" lon="7.43523"><ele>1544.4</ele><time>2015-09-08T10:45:04Z</time></trkpt>
<trkpt lat="46.22012" lon="7.43522"><ele>1545</ele><time>2015-09-08T10:45:07Z</time></trkpt>
<trkpt lat="46.22018" lon="7.43522"><ele>1544.8</ele><time>2015-09-08T10:45:11Z</time></trkpt>
<trkpt lat="46.22025" lon="7.43524"><ele>1544.6</ele><time>2015-09-08T10:45:16Z</time></trkpt>
<trkpt lat="46.22036" lon="7.43545"><ele>1544</ele><time>2015-09-08T10:45:26Z</time></trkpt>
<trkpt lat="46.22037" lon="7.43547"><ele>1543.8</ele><time>2015-09-08T10:45:27Z</time></trkpt>
<trkpt lat="46.22039" lon="7.43552"><ele>1544</ele><time>2015-09-08T10:45:29Z</time></trkpt>
<trkpt lat="46.2204" lon="7.4358"><ele>1546.4</ele><time>2015-09-08T10:45:40Z</time></trkpt>
<trkpt lat="46.22031" lon="7.43593"><ele>1548.4</ele><time>2015-09-08T10:45:48Z</time></trkpt>
<trkpt lat="46.22025" lon="7.43595"><ele>1549.6</ele><time>2015-09-08T10:45:52Z</time></trkpt>
<trkpt lat="46.22016" lon="7.43598"><ele>1551.2</ele><time>2015-09-08T10:45:57Z</time></trkpt>
<trkpt lat="46.22011" lon="7.43598"><ele>1551.8</ele><time>2015-09-08T10:46:00Z</time></trkpt>
<trkpt lat="46.22008" lon="7.43599"><ele>1552.2</ele><time>2015-09-08T10:46:02Z</time></trkpt>
<trkpt lat="46.22003" lon="7.43603"><ele>1552.6</ele><time>2015-09-08T10:46:05Z</time></trkpt>
<trkpt lat="46.21998" lon="7.43627"><ele>1553.4</ele><time>2015-09-08T10:46:15Z</time></trkpt>
<trkpt lat="46.22004" lon="7.43642"><ele>1553.8</ele><time>2015-09-08T10:46:25Z</time></trkpt>
<trkpt lat="46.2201" lon="7.43647"><ele>1555</ele><time>2015-09-08T10:46:32Z</time></trkpt>
<trkpt lat="46.22028" lon="7.43653"><ele>1558.6</ele><time>2015-09-08T10:46:47Z</time></trkpt>
<trkpt lat="46.2203" lon="7.43653"><ele>1559.2</ele><time>2015-09-08T10:46:49Z</time></trkpt>
<trkpt lat="46.22039" lon="7.43654"><ele>1560.4</ele><time>2015-09-08T10:46:56Z</time></trkpt>
<trkpt lat="46.22041" lon="7.43656"><ele>1561.2</ele><time>2015-09-08T10:46:58Z</time></trkpt>
<trkpt lat="46.22043" lon="7.43671"><ele>1563.8</ele><time>2015-09-08T10:47:07Z</time></trkpt>
<trkpt lat="46.2204" lon="7.43682"><ele>1564.4</ele><time>2015-09-08T10:47:13Z</time></trkpt>
<trkpt lat="46.22037" lon="7.4368"><ele>1568</ele><time>2015-09-08T10:47:29Z</time></trkpt>
<trkpt lat="46.22037" lon="7.4368"><ele>1568.2</ele><time>2015-09-08T10:47:32Z</time></trkpt>
<trkpt lat="46.22037" lon="7.43682"><ele>1568.4</ele><time>2015-09-08T10:47:40Z</time></trkpt>
<trkpt lat="46.22036" lon="7.43681"><ele>1567.8</ele><time>2015-09-08T10:48:08Z</time></trkpt>
<trkpt lat="46.22036" lon="7.43682"><ele>1567.8</ele><time>2015-09-08T10:48:16Z</time></trkpt>
<trkpt lat="46.22033" lon="7.43685"><ele>1567.8</ele><time>2015-09-08T10:48:54Z</time></trkpt>
<trkpt lat="46.22036" lon="7.4369"><ele>1568.2</ele><time>2015-09-08T10:49:14Z</time></trkpt>
<trkpt lat="46.22037" lon="7.43689"><ele>1567.8</ele><time>2015-09-08T10:49:24Z</time></trkpt>
<trkpt lat="46.22039" lon="7.43685"><ele>1568.4</ele><time>2015-09-08T10:49:43Z</time></trkpt>
<trkpt lat="46.22022" lon="7.43693"><ele>1568.6</ele><time>2015-09-08T10:50:01Z</time></trkpt>
<trkpt lat="46.22004" lon="7.43692"><ele>1568.6</ele><time>2015-09-08T10:50:16Z</time></trkpt>
<trkpt lat="46.21987" lon="7.43695"><ele>1568.6</ele><time>2015-09-08T10:50:32Z</time></trkpt>
<trkpt lat="46.21979" lon="7.43699"><ele>1568.8</ele><time>2015-09-08T10:50:42Z</time></trkpt>
<trkpt lat="46.21968" lon="7.43698"><ele>1569</ele><time>2015-09-08T10:50:53Z</time></trkpt>
<trkpt lat="46.21963" lon="7.43697"><ele>1569.4</ele><time>2015-09-08T10:50:58Z</time></trkpt>
<trkpt lat="46.21944" lon="7.43698"><ele>1569.6</ele><time>2015-09-08T10:51:16Z</time></trkpt>
<trkpt lat="46.21928" lon="7.43701"><ele>1570.2</ele><time>2015-09-08T10:51:34Z</time></trkpt>
<trkpt lat="46.21909" lon="7.43701"><ele>1570.8</ele><time>2015-09-08T10:51:53Z</time></trkpt>
<trkpt lat="46.21891" lon="7.43705"><ele>1572.2</ele><time>2015-09-08T10:52:12Z</time></trkpt>
<trkpt lat="46.21878" lon="7.43707"><ele>1577</ele><time>2015-09-08T10:52:30Z</time></trkpt>
<trkpt lat="46.21869" lon="7.43731"><ele>1581.2</ele><time>2015-09-08T10:52:51Z</time></trkpt>
<trkpt lat="46.21864" lon="7.43745"><ele>1584.6</ele><time>2015-09-08T10:53:04Z</time></trkpt>
<trkpt lat="46.21856" lon="7.43758"><ele>1587.4</ele><time>2015-09-08T10:53:16Z</time></trkpt>
<trkpt lat="46.2185" lon="7.43774"><ele>1589.8</ele><time>2015-09-08T10:53:28Z</time></trkpt>
<trkpt lat="46.21846" lon="7.43782"><ele>1591.2</ele><time>2015-09-08T10:53:34Z</time></trkpt>
<trkpt lat="46.21843" lon="7.43786"><ele>1591.8</ele><time>2015-09-08T10:53:38Z</time></trkpt>
<trkpt lat="46.21831" lon="7.43806"><ele>1596.4</ele><time>2015-09-08T10:53:52Z</time></trkpt>
<trkpt lat="46.21817" lon="7.43825"><ele>1600.2</ele><time>2015-09-08T10:54:05Z</time></trkpt>
<trkpt lat="46.21813" lon="7.43828"><ele>1601.6</ele><time>2015-09-08T10:54:11Z</time></trkpt>
<trkpt lat="46.21809" lon="7.43836"><ele>1603.6</ele><time>2015-09-08T10:54:18Z</time></trkpt>
<trkpt lat="46.21793" lon="7.43849"><ele>1607.6</ele><time>2015-09-08T10:54:36Z</time></trkpt>
<trkpt lat="46.21778" lon="7.43863"><ele>1610</ele><time>2015-09-08T10:54:47Z</time></trkpt>
<trkpt lat="46.21768" lon="7.43873"><ele>1612.4</ele><time>2015-09-08T10:54:55Z</time></trkpt>
<trkpt lat="46.21762" lon="7.43876"><ele>1613.6</ele><time>2015-09-08T10:54:59Z</time></trkpt>
<trkpt lat="46.21761" lon="7.43877"><ele>1613.8</ele><time>2015-09-08T10:55:00Z</time></trkpt>
<trkpt lat="46.2175" lon="7.43877"><ele>1615.8</ele><time>2015-09-08T10:55:08Z</time></trkpt>
<trkpt lat="46.2174" lon="7.4388"><ele>1618.2</ele><time>2015-09-08T10:55:16Z</time></trkpt>
<trkpt lat="46.21736" lon="7.43884"><ele>1619.2</ele><time>2015-09-08T10:55:20Z</time></trkpt>
<trkpt lat="46.2172" lon="7.43896"><ele>1622.2</ele><time>2015-09-08T10:55:33Z</time></trkpt>
<trkpt lat="46.21704" lon="7.43903"><ele>1624.6</ele><time>2015-09-08T10:55:43Z</time></trkpt>
<trkpt lat="46.21687" lon="7.43914"><ele>1627.4</ele><time>2015-09-08T10:55:57Z</time></trkpt>
<trkpt lat="46.2167" lon="7.43924"><ele>1629.4</ele><time>2015-09-08T10:56:10Z</time></trkpt>
<trkpt lat="46.21663" lon="7.43928"><ele>1630.6</ele><time>2015-09-08T10:56:16Z</time></trkpt>
<trkpt lat="46.21646" lon="7.43939"><ele>1633.6</ele><time>2015-09-08T10:56:29Z</time></trkpt>
<trkpt lat="46.21636" lon="7.43942"><ele>1636.6</ele><time>2015-09-08T10:56:40Z</time></trkpt>
<trkpt lat="46.21631" lon="7.43946"><ele>1638</ele><time>2015-09-08T10:56:45Z</time></trkpt>
<trkpt lat="46.21629" lon="7.4395"><ele>1638.8</ele><time>2015-09-08T10:56:48Z</time></trkpt>
<trkpt lat="46.21622" lon="7.43957"><ele>1640.2</ele><time>2015-09-08T10:56:55Z</time></trkpt>
<trkpt lat="46.21606" lon="7.4397"><ele>1643.8</ele><time>2015-09-08T10:57:09Z</time></trkpt>
<trkpt lat="46.21597" lon="7.43983"><ele>1645.8</ele><time>2015-09-08T10:57:19Z</time></trkpt>
<trkpt lat="46.21585" lon="7.44002"><ele>1648.8</ele><time>2015-09-08T10:57:34Z</time></trkpt>
<trkpt lat="46.21573" lon="7.44022"><ele>1649.2</ele><time>2015-09-08T10:57:48Z</time></trkpt>
<trkpt lat="46.2156" lon="7.44039"><ele>1650.2</ele><time>2015-09-08T10:58:01Z</time></trkpt>
<trkpt lat="46.21556" lon="7.44039"><ele>1650.4</ele><time>2015-09-08T10:58:15Z</time></trkpt>
<trkpt lat="46.21558" lon="7.44039"><ele>1650.2</ele><time>2015-09-08T10:58:26Z</time></trkpt>
<trkpt lat="46.21559" lon="7.4404"><ele>1650.2</ele><time>2015-09-08T10:58:29Z</time></trkpt>
<trkpt lat="46.21562" lon="7.44042"><ele>1649.8</ele><time>2015-09-08T10:58:34Z</time></trkpt>
<trkpt lat="46.21561" lon="7.44043"><ele>1649.6</ele><time>2015-09-08T10:58:43Z</time></trkpt>
<trkpt lat="46.21562" lon="7.44041"><ele>1650</ele><time>2015-09-08T10:58:48Z</time></trkpt>
<trkpt lat="46.21554" lon="7.44038"><ele>1648.8</ele><time>2015-09-08T10:59:13Z</time></trkpt>
<trkpt lat="46.21557" lon="7.44037"><ele>1647.8</ele><time>2015-09-08T10:59:28Z</time></trkpt>
<trkpt lat="46.21558" lon="7.44039"><ele>1647.4</ele><time>2015-09-08T10:59:38Z</time></trkpt>
<trkpt lat="46.21557" lon="7.44039"><ele>1646.6</ele><time>2015-09-08T11:00:05Z</time></trkpt>
<trkpt lat="46.21557" lon="7.44038"><ele>1646.4</ele><time>2015-09-08T11:00:14Z</time></trkpt>
<trkpt lat="46.21556" lon="7.44037"><ele>1646.4</ele><time>2015-09-08T11:00:30Z</time></trkpt>
<trkpt lat="46.21557" lon="7.44036"><ele>1646.4</ele><time>2015-09-08T11:00:48Z</time></trkpt>
<trkpt lat="46.21556" lon="7.44035"><ele>1646.4</ele><time>2015-09-08T11:00:51Z</time></trkpt>
<trkpt lat="46.21557" lon="7.44035"><ele>1646.4</ele><time>2015-09-08T11:00:52Z</time></trkpt>
<trkpt lat="46.21557" lon="7.44035"><ele>1646.4</ele><time>2015-09-08T11:00:53Z</time></trkpt>
<trkpt lat="46.21557" lon="7.44035"><ele>1646.2</ele><time>2015-09-08T11:00:57Z</time></trkpt>
<trkpt lat="46.21556" lon="7.44034"><ele>1646.2</ele><time>2015-09-08T11:01:02Z</time></trkpt>
<trkpt lat="46.21557" lon="7.4404"><ele>1647.2</ele><time>2015-09-08T11:01:42Z</time></trkpt>
<trkpt lat="46.21557" lon="7.4404"><ele>1647.4</ele><time>2015-09-08T11:01:45Z</time></trkpt>
<trkpt lat="46.21558" lon="7.4404"><ele>1647.4</ele><time>2015-09-08T11:01:47Z</time></trkpt>
<trkpt lat="46.21559" lon="7.44039"><ele>1647.2</ele><time>2015-09-08T11:01:52Z</time></trkpt>
<trkpt lat="46.2156" lon="7.44039"><ele>1647</ele><time>2015-09-08T11:01:54Z</time></trkpt>
<trkpt lat="46.21559" lon="7.44039"><ele>1646.8</ele><time>2015-09-08T11:01:56Z</time></trkpt>
<trkpt lat="46.21557" lon="7.44037"><ele>1647</ele><time>2015-09-08T11:02:11Z</time></trkpt>
<trkpt lat="46.21557" lon="7.44037"><ele>1647</ele><time>2015-09-08T11:02:12Z</time></trkpt>
<trkpt lat="46.21556" lon="7.44039"><ele>1646.8</ele><time>2015-09-08T11:02:17Z</time></trkpt>
<trkpt lat="46.21537" lon="7.4405"><ele>1645.8</ele><time>2015-09-08T11:02:23Z</time></trkpt>
<trkpt lat="46.21519" lon="7.44066"><ele>1644</ele><time>2015-09-08T11:02:27Z</time></trkpt>
<trkpt lat="46.21515" lon="7.4407"><ele>1641.6</ele><time>2015-09-08T11:02:36Z</time></trkpt>
<trkpt lat="46.21517" lon="7.44068"><ele>1641.2</ele><time>2015-09-08T11:02:37Z</time></trkpt>
<trkpt lat="46.21533" lon="7.44057"><ele>1641</ele><time>2015-09-08T11:02:47Z</time></trkpt>
<trkpt lat="46.21548" lon="7.44049"><ele>1642.8</ele><time>2015-09-08T11:02:55Z</time></trkpt>
<trkpt lat="46.21562" lon="7.44037"><ele>1644.6</ele><time>2015-09-08T11:03:04Z</time></trkpt>
<trkpt lat="46.21557" lon="7.44038"><ele>1644.8</ele><time>2015-09-08T11:03:13Z</time></trkpt>
<trkpt lat="46.21557" lon="7.4404"><ele>1645.8</ele><time>2015-09-08T11:03:42Z</time></trkpt>
<trkpt lat="46.21557" lon="7.44038"><ele>1645.4</ele><time>2015-09-08T11:03:49Z</time></trkpt>
<trkpt lat="46.2154" lon="7.44047"><ele>1643.6</ele><time>2015-09-08T11:04:08Z</time></trkpt>
<trkpt lat="46.21522" lon="7.44061"><ele>1642.2</ele><time>2015-09-08T11:04:11Z</time></trkpt>
<trkpt lat="46.21513" lon="7.44066"><ele>1641.2</ele><time>2015-09-08T11:04:13Z</time></trkpt>
<trkpt lat="46.2152" lon="7.44065"><ele>1639</ele><time>2015-09-08T11:04:21Z</time></trkpt>
<trkpt lat="46.21524" lon="7.44062"><ele>1639</ele><time>2015-09-08T11:04:23Z</time></trkpt>
<trkpt lat="46.21542" lon="7.44049"><ele>1639.8</ele><time>2015-09-08T11:04:31Z</time></trkpt>
<trkpt lat="46.2156" lon="7.44039"><ele>1640.2</ele><time>2015-09-08T11:04:39Z</time></trkpt>
<trkpt lat="46.21561" lon="7.44038"><ele>1640.4</ele><time>2015-09-08T11:04:41Z</time></trkpt>
<trkpt lat="46.21559" lon="7.44038"><ele>1641.4</ele><time>2015-09-08T11:04:49Z</time></trkpt>
<trkpt lat="46.21559" lon="7.44039"><ele>1641.8</ele><time>2015-09-08T11:04:57Z</time></trkpt>
<trkpt lat="46.21557" lon="7.44048"><ele>1644.6</ele><time>2015-09-08T11:05:22Z</time></trkpt>
<trkpt lat="46.21554" lon="7.44054"><ele>1644.8</ele><time>2015-09-08T11:05:28Z</time></trkpt>
<trkpt lat="46.21554" lon="7.44055"><ele>1644.8</ele><time>2015-09-08T11:05:29Z</time></trkpt>
<trkpt lat="46.21553" lon="7.44055"><ele>1644.8</ele><time>2015-09-08T11:05:30Z</time></trkpt>
<trkpt lat="46.21553" lon="7.44057"><ele>1645</ele><time>2015-09-08T11:05:32Z</time></trkpt>
<trkpt lat="46.21556" lon="7.44046"><ele>1645.6</ele><time>2015-09-08T11:05:52Z</time></trkpt>
<trkpt lat="46.21556" lon="7.44041"><ele>1645.2</ele><time>2015-09-08T11:06:03Z</time></trkpt>
<trkpt lat="46.21555" lon="7.44044"><ele>1645</ele><time>2015-09-08T11:06:07Z</time></trkpt>
<trkpt lat="46.21548" lon="7.44056"><ele>1645</ele><time>2015-09-08T11:06:20Z</time></trkpt>
<trkpt lat="46.21546" lon="7.4406"><ele>1645</ele><time>2015-09-08T11:06:29Z</time></trkpt>
<trkpt lat="46.21547" lon="7.44061"><ele>1645</ele><time>2015-09-08T11:06:37Z</time></trkpt>
<trkpt lat="46.21546" lon="7.44061"><ele>1645.6</ele><time>2015-09-08T11:06:50Z</time></trkpt>
<trkpt lat="46.21547" lon="7.44061"><ele>1645.6</ele><time>2015-09-08T11:06:54Z</time></trkpt>
<trkpt lat="46.21547" lon="7.44061"><ele>1645.6</ele><time>2015-09-08T11:06:55Z</time></trkpt>
<trkpt lat="46.21547" lon="7.44061"><ele>1645.6</ele><time>2015-09-08T11:06:57Z</time></trkpt>
<trkpt lat="46.21547" lon="7.44061"><ele>1645.6</ele><time>2015-09-08T11:06:58Z</time></trkpt>
<trkpt lat="46.21547" lon="7.44058"><ele>1646</ele><time>2015-09-08T11:07:07Z</time></trkpt>
<trkpt lat="46.21546" lon="7.44058"><ele>1646</ele><time>2015-09-08T11:07:08Z</time></trkpt>
<trkpt lat="46.21546" lon="7.44058"><ele>1646.2</ele><time>2015-09-08T11:07:09Z</time></trkpt>
<trkpt lat="46.21548" lon="7.44054"><ele>1646.6</ele><time>2015-09-08T11:07:14Z</time></trkpt>
<trkpt lat="46.2155" lon="7.44053"><ele>1646.8</ele><time>2015-09-08T11:07:19Z</time></trkpt>
<trkpt lat="46.21543" lon="7.44062"><ele>1646.6</ele><time>2015-09-08T11:07:27Z</time></trkpt>
<trkpt lat="46.21548" lon="7.44059"><ele>1646.6</ele><time>2015-09-08T11:07:42Z</time></trkpt>
<trkpt lat="46.21553" lon="7.44056"><ele>1646.6</ele><time>2015-09-08T11:07:45Z</time></trkpt>
<trkpt lat="46.21555" lon="7.44053"><ele>1646.6</ele><time>2015-09-08T11:07:47Z</time></trkpt>
<trkpt lat="46.21555" lon="7.44053"><ele>1646.6</ele><time>2015-09-08T11:07:48Z</time></trkpt>
<trkpt lat="46.21552" lon="7.44056"><ele>1646.8</ele><time>2015-09-08T11:07:57Z</time></trkpt>
<trkpt lat="46.21544" lon="7.44064"><ele>1647</ele><time>2015-09-08T11:08:02Z</time></trkpt>
<trkpt lat="46.21544" lon="7.44065"><ele>1646.8</ele><time>2015-09-08T11:08:03Z</time></trkpt>
<trkpt lat="46.21543" lon="7.44061"><ele>1647</ele><time>2015-09-08T11:08:24Z</time></trkpt>
<trkpt lat="46.21543" lon="7.44062"><ele>1647</ele><time>2015-09-08T11:08:29Z</time></trkpt>
<trkpt lat="46.21544" lon="7.44065"><ele>1646.6</ele><time>2015-09-08T11:08:46Z</time></trkpt>
<trkpt lat="46.21542" lon="7.44064"><ele>1646</ele><time>2015-09-08T11:09:02Z</time></trkpt>
<trkpt lat="46.21542" lon="7.44066"><ele>1646</ele><time>2015-09-08T11:09:13Z</time></trkpt>
<trkpt lat="46.21532" lon="7.44083"><ele>1646</ele><time>2015-09-08T11:09:29Z</time></trkpt>
<trkpt lat="46.21527" lon="7.44091"><ele>1646</ele><time>2015-09-08T11:09:33Z</time></trkpt>
<trkpt lat="46.21524" lon="7.441"><ele>1645.8</ele><time>2015-09-08T11:09:37Z</time></trkpt>
<trkpt lat="46.21517" lon="7.44113"><ele>1645</ele><time>2015-09-08T11:09:44Z</time></trkpt>
<trkpt lat="46.2151" lon="7.44128"><ele>1643.8</ele><time>2015-09-08T11:09:53Z</time></trkpt>
<trkpt lat="46.21507" lon="7.4413"><ele>1643.4</ele><time>2015-09-08T11:09:56Z</time></trkpt>
<trkpt lat="46.21505" lon="7.44133"><ele>1643</ele><time>2015-09-08T11:09:59Z</time></trkpt>
<trkpt lat="46.21503" lon="7.44137"><ele>1642.8</ele><time>2015-09-08T11:10:01Z</time></trkpt>
<trkpt lat="46.21491" lon="7.44158"><ele>1641.4</ele><time>2015-09-08T11:10:10Z</time></trkpt>
<trkpt lat="46.21482" lon="7.44179"><ele>1640.8</ele><time>2015-09-08T11:10:17Z</time></trkpt>
<trkpt lat="46.2148" lon="7.44186"><ele>1640.4</ele><time>2015-09-08T11:10:21Z</time></trkpt>
<trkpt lat="46.21476" lon="7.44195"><ele>1640.4</ele><time>2015-09-08T11:10:26Z</time></trkpt>
<trkpt lat="46.21471" lon="7.44203"><ele>1640.4</ele><time>2015-09-08T11:10:30Z</time></trkpt>
<trkpt lat="46.2146" lon="7.44225"><ele>1642.6</ele><time>2015-09-08T11:10:40Z</time></trkpt>
<trkpt lat="46.21454" lon="7.44234"><ele>1643.6</ele><time>2015-09-08T11:10:46Z</time></trkpt>
<trkpt lat="46.21442" lon="7.44243"><ele>1645.6</ele><time>2015-09-08T11:11:07Z</time></trkpt>
<trkpt lat="46.21433" lon="7.44248"><ele>1646.2</ele><time>2015-09-08T11:11:12Z</time></trkpt>
<trkpt lat="46.21426" lon="7.44255"><ele>1647</ele><time>2015-09-08T11:11:17Z</time></trkpt>
<trkpt lat="46.21411" lon="7.44272"><ele>1650.2</ele><time>2015-09-08T11:11:28Z</time></trkpt>
<trkpt lat="46.21406" lon="7.44277"><ele>1651</ele><time>2015-09-08T11:11:32Z</time></trkpt>
<trkpt lat="46.21405" lon="7.44278"><ele>1651.4</ele><time>2015-09-08T11:11:38Z</time></trkpt>
<trkpt lat="46.21405" lon="7.4428"><ele>1651.4</ele><time>2015-09-08T11:11:43Z</time></trkpt>
<trkpt lat="46.21404" lon="7.44281"><ele>1651.6</ele><time>2015-09-08T11:11:50Z</time></trkpt>
<trkpt lat="46.21394" lon="7.44305"><ele>1653</ele><time>2015-09-08T11:12:01Z</time></trkpt>
<trkpt lat="46.21391" lon="7.44311"><ele>1653.4</ele><time>2015-09-08T11:12:03Z</time></trkpt>
<trkpt lat="46.2138" lon="7.44331"><ele>1653.8</ele><time>2015-09-08T11:12:10Z</time></trkpt>
<trkpt lat="46.21368" lon="7.44351"><ele>1653.6</ele><time>2015-09-08T11:12:17Z</time></trkpt>
<trkpt lat="46.21363" lon="7.44358"><ele>1653.8</ele><time>2015-09-08T11:12:20Z</time></trkpt>
<trkpt lat="46.2136" lon="7.44364"><ele>1653.6</ele><time>2015-09-08T11:12:22Z</time></trkpt>
<trkpt lat="46.21359" lon="7.44367"><ele>1653.6</ele><time>2015-09-08T11:12:23Z</time></trkpt>
<trkpt lat="46.21357" lon="7.44371"><ele>1653.4</ele><time>2015-09-08T11:12:24Z</time></trkpt>
<trkpt lat="46.21354" lon="7.44377"><ele>1653.2</ele><time>2015-09-08T11:12:26Z</time></trkpt>
<trkpt lat="46.21342" lon="7.44394"><ele>1654.4</ele><time>2015-09-08T11:12:35Z</time></trkpt>
<trkpt lat="46.21341" lon="7.44398"><ele>1654.6</ele><time>2015-09-08T11:12:37Z</time></trkpt>
<trkpt lat="46.21339" lon="7.44417"><ele>1658.2</ele><time>2015-09-08T11:12:45Z</time></trkpt>
<trkpt lat="46.21341" lon="7.44433"><ele>1661</ele><time>2015-09-08T11:12:52Z</time></trkpt>
<trkpt lat="46.21349" lon="7.44458"><ele>1663</ele><time>2015-09-08T11:13:04Z</time></trkpt>
<trkpt lat="46.21349" lon="7.4446"><ele>1663.4</ele><time>2015-09-08T11:13:05Z</time></trkpt>
<trkpt lat="46.2135" lon="7.44464"><ele>1663.8</ele><time>2015-09-08T11:13:07Z</time></trkpt>
<trkpt lat="46.21354" lon="7.44476"><ele>1665</ele><time>2015-09-08T11:13:13Z</time></trkpt>
<trkpt lat="46.21356" lon="7.44487"><ele>1666</ele><time>2015-09-08T11:13:18Z</time></trkpt>
<trkpt lat="46.21355" lon="7.44496"><ele>1666.8</ele><time>2015-09-08T11:13:22Z</time></trkpt>
<trkpt lat="46.21349" lon="7.44506"><ele>1668.4</ele><time>2015-09-08T11:13:28Z</time></trkpt>
<trkpt lat="46.21346" lon="7.44509"><ele>1668.8</ele><time>2015-09-08T11:13:30Z</time></trkpt>
<trkpt lat="46.21328" lon="7.44518"><ele>1671</ele><time>2015-09-08T11:13:42Z</time></trkpt>
<trkpt lat="46.21315" lon="7.4452"><ele>1672.2</ele><time>2015-09-08T11:13:50Z</time></trkpt>
<trkpt lat="46.21309" lon="7.44524"><ele>1672.2</ele><time>2015-09-08T11:13:54Z</time></trkpt>
<trkpt lat="46.21315" lon="7.44529"><ele>1673.2</ele><time>2015-09-08T11:14:02Z</time></trkpt>
<trkpt lat="46.21333" lon="7.44527"><ele>1675.2</ele><time>2015-09-08T11:14:14Z</time></trkpt>
<trkpt lat="46.21346" lon="7.44528"><ele>1676</ele><time>2015-09-08T11:14:22Z</time></trkpt>
<trkpt lat="46.21364" lon="7.44521"><ele>1677.4</ele><time>2015-09-08T11:14:33Z</time></trkpt>
<trkpt lat="46.2138" lon="7.44505"><ele>1678.4</ele><time>2015-09-08T11:14:44Z</time></trkpt>
<trkpt lat="46.21388" lon="7.44496"><ele>1679.8</ele><time>2015-09-08T11:14:50Z</time></trkpt>
<trkpt lat="46.21399" lon="7.44473"><ele>1681.8</ele><time>2015-09-08T11:15:02Z</time></trkpt>
<trkpt lat="46.21407" lon="7.44453"><ele>1683.4</ele><time>2015-09-08T11:15:11Z</time></trkpt>
<trkpt lat="46.21417" lon="7.44429"><ele>1685.8</ele><time>2015-09-08T11:15:22Z</time></trkpt>
<trkpt lat="46.2143" lon="7.44409"><ele>1688</ele><time>2015-09-08T11:15:33Z</time></trkpt>
<trkpt lat="46.21445" lon="7.44394"><ele>1690</ele><time>2015-09-08T11:15:43Z</time></trkpt>
<trkpt lat="46.21461" lon="7.44386"><ele>1691.4</ele><time>2015-09-08T11:15:53Z</time></trkpt>
<trkpt lat="46.21479" lon="7.4438"><ele>1691</ele><time>2015-09-08T11:16:03Z</time></trkpt>
<trkpt lat="46.21495" lon="7.44366"><ele>1691.4</ele><time>2015-09-08T11:16:14Z</time></trkpt>
<trkpt lat="46.21507" lon="7.44346"><ele>1693.8</ele><time>2015-09-08T11:16:25Z</time></trkpt>
<trkpt lat="46.21517" lon="7.44323"><ele>1696.8</ele><time>2015-09-08T11:16:36Z</time></trkpt>
<trkpt lat="46.2153" lon="7.44305"><ele>1700</ele><time>2015-09-08T11:16:47Z</time></trkpt>
<trkpt lat="46.21544" lon="7.44293"><ele>1702</ele><time>2015-09-08T11:16:56Z</time></trkpt>
<trkpt lat="46.21562" lon="7.44283"><ele>1703.8</ele><time>2015-09-08T11:17:08Z</time></trkpt>
<trkpt lat="46.2158" lon="7.44277"><ele>1706.6</ele><time>2015-09-08T11:17:19Z</time></trkpt>
<trkpt lat="46.21592" lon="7.44282"><ele>1707</ele><time>2015-09-08T11:17:25Z</time></trkpt>
<trkpt lat="46.21583" lon="7.443"><ele>1708.8</ele><time>2015-09-08T11:17:34Z</time></trkpt>
<trkpt lat="46.21579" lon="7.44301"><ele>1709.2</ele><time>2015-09-08T11:17:36Z</time></trkpt>
<trkpt lat="46.21561" lon="7.44305"><ele>1709.4</ele><time>2015-09-08T11:17:45Z</time></trkpt>
<trkpt lat="46.21545" lon="7.44316"><ele>1711.2</ele><time>2015-09-08T11:17:54Z</time></trkpt>
<trkpt lat="46.21539" lon="7.44329"><ele>1711</ele><time>2015-09-08T11:17:59Z</time></trkpt>
<trkpt lat="46.21536" lon="7.44343"><ele>1709.6</ele><time>2015-09-08T11:18:04Z</time></trkpt>
<trkpt lat="46.21532" lon="7.4437"><ele>1711.8</ele><time>2015-09-08T11:18:14Z</time></trkpt>
<trkpt lat="46.21528" lon="7.44396"><ele>1714</ele><time>2015-09-08T11:18:24Z</time></trkpt>
<trkpt lat="46.21526" lon="7.44416"><ele>1716.2</ele><time>2015-09-08T11:18:32Z</time></trkpt>
<trkpt lat="46.21521" lon="7.44443"><ele>1718.4</ele><time>2015-09-08T11:18:44Z</time></trkpt>
<trkpt lat="46.21515" lon="7.44468"><ele>1722.6</ele><time>2015-09-08T11:18:56Z</time></trkpt>
<trkpt lat="46.21512" lon="7.44478"><ele>1724</ele><time>2015-09-08T11:19:00Z</time></trkpt>
<trkpt lat="46.21509" lon="7.44506"><ele>1727.2</ele><time>2015-09-08T11:19:10Z</time></trkpt>
<trkpt lat="46.21502" lon="7.44533"><ele>1728.2</ele><time>2015-09-08T11:19:20Z</time></trkpt>
<trkpt lat="46.21496" lon="7.44558"><ele>1729.2</ele><time>2015-09-08T11:19:30Z</time></trkpt>
<trkpt lat="46.21485" lon="7.44578"><ele>1730.2</ele><time>2015-09-08T11:19:41Z</time></trkpt>
<trkpt lat="46.2148" lon="7.44589"><ele>1730</ele><time>2015-09-08T11:19:47Z</time></trkpt>
<trkpt lat="46.21481" lon="7.44616"><ele>1730.4</ele><time>2015-09-08T11:19:59Z</time></trkpt>
<trkpt lat="46.21479" lon="7.44623"><ele>1730.6</ele><time>2015-09-08T11:20:02Z</time></trkpt>
<trkpt lat="46.21477" lon="7.44637"><ele>1731.4</ele><time>2015-09-08T11:20:08Z</time></trkpt>
<trkpt lat="46.21472" lon="7.44645"><ele>1731.4</ele><time>2015-09-08T11:20:12Z</time></trkpt>
<trkpt lat="46.21462" lon="7.44667"><ele>1731.8</ele><time>2015-09-08T11:20:22Z</time></trkpt>
<trkpt lat="46.21445" lon="7.44685"><ele>1733.4</ele><time>2015-09-08T11:20:31Z</time></trkpt>
<trkpt lat="46.21432" lon="7.44703"><ele>1735.8</ele><time>2015-09-08T11:20:40Z</time></trkpt>
<trkpt lat="46.21419" lon="7.4472"><ele>1739.6</ele><time>2015-09-08T11:20:50Z</time></trkpt>
<trkpt lat="46.21404" lon="7.44737"><ele>1742.4</ele><time>2015-09-08T11:21:00Z</time></trkpt>
<trkpt lat="46.214" lon="7.44744"><ele>1742.8</ele><time>2015-09-08T11:21:03Z</time></trkpt>
<trkpt lat="46.21386" lon="7.44764"><ele>1745</ele><time>2015-09-08T11:21:13Z</time></trkpt>
<trkpt lat="46.21371" lon="7.44781"><ele>1746.2</ele><time>2015-09-08T11:21:22Z</time></trkpt>
<trkpt lat="46.21355" lon="7.44795"><ele>1747.4</ele><time>2015-09-08T11:21:30Z</time></trkpt>
<trkpt lat="46.21338" lon="7.44809"><ele>1748</ele><time>2015-09-08T11:21:38Z</time></trkpt>
<trkpt lat="46.21328" lon="7.44819"><ele>1748.6</ele><time>2015-09-08T11:21:43Z</time></trkpt>
<trkpt lat="46.21318" lon="7.4484"><ele>1749.8</ele><time>2015-09-08T11:21:53Z</time></trkpt>
<trkpt lat="46.21302" lon="7.44849"><ele>1748.8</ele><time>2015-09-08T11:22:03Z</time></trkpt>
<trkpt lat="46.21292" lon="7.44842"><ele>1747.6</ele><time>2015-09-08T11:22:07Z</time></trkpt>
<trkpt lat="46.21289" lon="7.44838"><ele>1747.2</ele><time>2015-09-08T11:22:11Z</time></trkpt>
<trkpt lat="46.2129" lon="7.44838"><ele>1747</ele><time>2015-09-08T11:22:16Z</time></trkpt>
<trkpt lat="46.21291" lon="7.44839"><ele>1746.2</ele><time>2015-09-08T11:22:22Z</time></trkpt>
<trkpt lat="46.21292" lon="7.44839"><ele>1745.8</ele><time>2015-09-08T11:22:27Z</time></trkpt>
<trkpt lat="46.21292" lon="7.44839"><ele>1745.8</ele><time>2015-09-08T11:22:29Z</time></trkpt>
<trkpt lat="46.21292" lon="7.44839"><ele>1745.2</ele><time>2015-09-08T11:22:38Z</time></trkpt>
<trkpt lat="46.21291" lon="7.44839"><ele>1745.8</ele><time>2015-09-08T11:22:47Z</time></trkpt>
<trkpt lat="46.21292" lon="7.44841"><ele>1746.2</ele><time>2015-09-08T11:23:00Z</time></trkpt>
<trkpt lat="46.21292" lon="7.44841"><ele>1746.4</ele><time>2015-09-08T11:23:04Z</time></trkpt>
<trkpt lat="46.21292" lon="7.44842"><ele>1746.4</ele><time>2015-09-08T11:23:07Z</time></trkpt>
<trkpt lat="46.21291" lon="7.44843"><ele>1747.4</ele><time>2015-09-08T11:23:22Z</time></trkpt>
<trkpt lat="46.21291" lon="7.44843"><ele>1748.2</ele><time>2015-09-08T11:23:38Z</time></trkpt>
<trkpt lat="46.21292" lon="7.44841"><ele>1747.6</ele><time>2015-09-08T11:23:50Z</time></trkpt>
<trkpt lat="46.2129" lon="7.44841"><ele>1747.2</ele><time>2015-09-08T11:24:05Z</time></trkpt>
<trkpt lat="46.21281" lon="7.44821"><ele>1747.2</ele><time>2015-09-08T11:24:46Z</time></trkpt>
<trkpt lat="46.2127" lon="7.4482"><ele>1749.8</ele><time>2015-09-08T11:24:55Z</time></trkpt>
<trkpt lat="46.21266" lon="7.44825"><ele>1750</ele><time>2015-09-08T11:24:58Z</time></trkpt>
<trkpt lat="46.21252" lon="7.44844"><ele>1749.8</ele><time>2015-09-08T11:25:07Z</time></trkpt>
<trkpt lat="46.21237" lon="7.44862"><ele>1747.6</ele><time>2015-09-08T11:25:13Z</time></trkpt>
<trkpt lat="46.21221" lon="7.44877"><ele>1746.4</ele><time>2015-09-08T11:25:19Z</time></trkpt>
<trkpt lat="46.21218" lon="7.44879"><ele>1746.4</ele><time>2015-09-08T11:25:20Z</time></trkpt>
<trkpt lat="46.21214" lon="7.44883"><ele>1746.6</ele><time>2015-09-08T11:25:22Z</time></trkpt>
<trkpt lat="46.21196" lon="7.44892"><ele>1745.6</ele><time>2015-09-08T11:25:30Z</time></trkpt>
<trkpt lat="46.21188" lon="7.44894"><ele>1746</ele><time>2015-09-08T11:25:33Z</time></trkpt>
<trkpt lat="46.21183" lon="7.44896"><ele>1746</ele><time>2015-09-08T11:25:35Z</time></trkpt>
<trkpt lat="46.21165" lon="7.44911"><ele>1745</ele><time>2015-09-08T11:25:42Z</time></trkpt>
<trkpt lat="46.21154" lon="7.44933"><ele>1744</ele><time>2015-09-08T11:25:48Z</time></trkpt>
<trkpt lat="46.21154" lon="7.44936"><ele>1743.8</ele><time>2015-09-08T11:25:49Z</time></trkpt>
<trkpt lat="46.21172" lon="7.44938"><ele>1745.4</ele><time>2015-09-08T11:25:56Z</time></trkpt>
<trkpt lat="46.21191" lon="7.44931"><ele>1748.2</ele><time>2015-09-08T11:26:03Z</time></trkpt>
<trkpt lat="46.2121" lon="7.44923"><ele>1752.6</ele><time>2015-09-08T11:26:10Z</time></trkpt>
<trkpt lat="46.21225" lon="7.44903"><ele>1762.8</ele><time>2015-09-08T11:26:19Z</time></trkpt>
<trkpt lat="46.21238" lon="7.44884"><ele>1769.2</ele><time>2015-09-08T11:26:26Z</time></trkpt>
<trkpt lat="46.21254" lon="7.44866"><ele>1773.4</ele><time>2015-09-08T11:26:32Z</time></trkpt>
<trkpt lat="46.21259" lon="7.44861"><ele>1776.2</ele><time>2015-09-08T11:26:35Z</time></trkpt>
<trkpt lat="46.21275" lon="7.44841"><ele>1779.6</ele><time>2015-09-08T11:26:40Z</time></trkpt>
<trkpt lat="46.21278" lon="7.44838"><ele>1779.8</ele><time>2015-09-08T11:26:41Z</time></trkpt>
<trkpt lat="46.21283" lon="7.44826"><ele>1764.8</ele><time>2015-09-08T11:26:49Z</time></trkpt>
<trkpt lat="46.21281" lon="7.44827"><ele>1761.2</ele><time>2015-09-08T11:26:52Z</time></trkpt>
<trkpt lat="46.21281" lon="7.44827"><ele>1759.8</ele><time>2015-09-08T11:26:54Z</time></trkpt>
<trkpt lat="46.21284" lon="7.44831"><ele>1756</ele><time>2015-09-08T11:27:03Z</time></trkpt>
<trkpt lat="46.21285" lon="7.44828"><ele>1755</ele><time>2015-09-08T11:27:08Z</time></trkpt>
<trkpt lat="46.21298" lon="7.4481"><ele>1753.2</ele><time>2015-09-08T11:27:17Z</time></trkpt>
<trkpt lat="46.213" lon="7.44807"><ele>1752.4</ele><time>2015-09-08T11:27:23Z</time></trkpt>
<trkpt lat="46.21303" lon="7.44807"><ele>1752</ele><time>2015-09-08T11:27:27Z</time></trkpt>
<trkpt lat="46.21304" lon="7.44806"><ele>1750.4</ele><time>2015-09-08T11:27:51Z</time></trkpt>
<trkpt lat="46.21304" lon="7.44806"><ele>1750.2</ele><time>2015-09-08T11:27:52Z</time></trkpt>
<trkpt lat="46.21307" lon="7.44809"><ele>1748.4</ele><time>2015-09-08T11:28:05Z</time></trkpt>
<trkpt lat="46.21307" lon="7.4481"><ele>1747.4</ele><time>2015-09-08T11:28:16Z</time></trkpt>
<trkpt lat="46.21309" lon="7.44815"><ele>1746.8</ele><time>2015-09-08T11:28:34Z</time></trkpt>
<trkpt lat="46.21308" lon="7.44815"><ele>1746.6</ele><time>2015-09-08T11:28:40Z</time></trkpt>
<trkpt lat="46.21307" lon="7.44815"><ele>1746.6</ele><time>2015-09-08T11:28:41Z</time></trkpt>
<trkpt lat="46.2131" lon="7.44814"><ele>1746.4</ele><time>2015-09-08T11:28:54Z</time></trkpt>
<trkpt lat="46.21311" lon="7.44812"><ele>1745</ele><time>2015-09-08T11:29:18Z</time></trkpt>
<trkpt lat="46.21311" lon="7.44814"><ele>1745</ele><time>2015-09-08T11:29:34Z</time></trkpt>
<trkpt lat="46.21309" lon="7.44814"><ele>1745</ele><time>2015-09-08T11:29:41Z</time></trkpt>
<trkpt lat="46.21307" lon="7.44814"><ele>1744.8</ele><time>2015-09-08T11:29:48Z</time></trkpt>
<trkpt lat="46.21307" lon="7.44814"><ele>1744.8</ele><time>2015-09-08T11:29:49Z</time></trkpt>
<trkpt lat="46.21307" lon="7.44814"><ele>1744.6</ele><time>2015-09-08T11:29:50Z</time></trkpt>
<trkpt lat="46.21307" lon="7.44814"><ele>1744.4</ele><time>2015-09-08T11:29:52Z</time></trkpt>
<trkpt lat="46.21306" lon="7.44815"><ele>1744.2</ele><time>2015-09-08T11:29:56Z</time></trkpt>
<trkpt lat="46.21309" lon="7.44817"><ele>1743.6</ele><time>2015-09-08T11:30:22Z</time></trkpt>
<trkpt lat="46.21309" lon="7.44816"><ele>1743.4</ele><time>2015-09-08T11:30:27Z</time></trkpt>
<trkpt lat="46.21309" lon="7.44815"><ele>1743.4</ele><time>2015-09-08T11:30:33Z</time></trkpt>
<trkpt lat="46.21311" lon="7.44816"><ele>1743.4</ele><time>2015-09-08T11:30:38Z</time></trkpt>
<trkpt lat="46.21311" lon="7.44816"><ele>1743.4</ele><time>2015-09-08T11:30:41Z</time></trkpt>
<trkpt lat="46.21311" lon="7.44816"><ele>1743.4</ele><time>2015-09-08T11:30:42Z</time></trkpt>
<trkpt lat="46.21312" lon="7.44814"><ele>1743.4</ele><time>2015-09-08T11:30:44Z</time></trkpt>
<trkpt lat="46.2131" lon="7.4481"><ele>1743.6</ele><time>2015-09-08T11:30:59Z</time></trkpt>
<trkpt lat="46.2131" lon="7.44812"><ele>1743.4</ele><time>2015-09-08T11:31:06Z</time></trkpt>
<trkpt lat="46.2131" lon="7.44812"><ele>1743.4</ele><time>2015-09-08T11:31:08Z</time></trkpt>
<trkpt lat="46.2131" lon="7.44812"><ele>1743.4</ele><time>2015-09-08T11:31:12Z</time></trkpt>
<trkpt lat="46.2131" lon="7.44813"><ele>1743.6</ele><time>2015-09-08T11:31:20Z</time></trkpt>
<trkpt lat="46.2131" lon="7.44815"><ele>1743.6</ele><time>2015-09-08T11:31:29Z</time></trkpt>
<trkpt lat="46.2131" lon="7.44816"><ele>1743.4</ele><time>2015-09-08T11:31:37Z</time></trkpt>
<trkpt lat="46.21311" lon="7.44817"><ele>1743.4</ele><time>2015-09-08T11:31:39Z</time></trkpt>
<trkpt lat="46.21311" lon="7.44818"><ele>1742.8</ele><time>2015-09-08T11:31:51Z</time></trkpt>
<trkpt lat="46.21311" lon="7.44817"><ele>1742.8</ele><time>2015-09-08T11:31:56Z</time></trkpt>
<trkpt lat="46.21311" lon="7.44817"><ele>1742.8</ele><time>2015-09-08T11:31:57Z</time></trkpt>
<trkpt lat="46.2131" lon="7.44816"><ele>1742.6</ele><time>2015-09-08T11:31:59Z</time></trkpt>
<trkpt lat="46.2131" lon="7.44816"><ele>1742.6</ele><time>2015-09-08T11:32:06Z</time></trkpt>
<trkpt lat="46.2131" lon="7.44816"><ele>1742.6</ele><time>2015-09-08T11:32:08Z</time></trkpt>
<trkpt lat="46.21311" lon="7.44814"><ele>1742.8</ele><time>2015-09-08T11:32:14Z</time></trkpt>
<trkpt lat="46.21311" lon="7.44812"><ele>1742.8</ele><time>2015-09-08T11:32:21Z</time></trkpt>
<trkpt lat="46.21308" lon="7.44808"><ele>1742.8</ele><time>2015-09-08T11:32:52Z</time></trkpt>
<trkpt lat="46.21308" lon="7.44806"><ele>1742.8</ele><time>2015-09-08T11:32:56Z</time></trkpt>
<trkpt lat="46.21308" lon="7.44806"><ele>1742.8</ele><time>2015-09-08T11:32:57Z</time></trkpt>
<trkpt lat="46.21309" lon="7.44806"><ele>1742.8</ele><time>2015-09-08T11:32:58Z</time></trkpt>
<trkpt lat="46.21309" lon="7.44817"><ele>1743</ele><time>2015-09-08T11:33:08Z</time></trkpt>
<trkpt lat="46.21312" lon="7.44817"><ele>1742.8</ele><time>2015-09-08T11:33:18Z</time></trkpt>
<trkpt lat="46.21312" lon="7.44815"><ele>1742.8</ele><time>2015-09-08T11:33:24Z</time></trkpt>
<trkpt lat="46.21312" lon="7.44814"><ele>1742.8</ele><time>2015-09-08T11:33:28Z</time></trkpt>
<trkpt lat="46.21312" lon="7.44818"><ele>1744</ele><time>2015-09-08T11:33:44Z</time></trkpt>
<trkpt lat="46.21311" lon="7.44818"><ele>1744</ele><time>2015-09-08T11:33:50Z</time></trkpt>
<trkpt lat="46.21311" lon="7.44817"><ele>1744</ele><time>2015-09-08T11:33:54Z</time></trkpt>
<trkpt lat="46.21311" lon="7.44817"><ele>1744</ele><time>2015-09-08T11:33:57Z</time></trkpt>
<trkpt lat="46.2131" lon="7.4482"><ele>1742.6</ele><time>2015-09-08T11:34:20Z</time></trkpt>
<trkpt lat="46.21311" lon="7.4482"><ele>1742</ele><time>2015-09-08T11:34:25Z</time></trkpt>
<trkpt lat="46.21309" lon="7.44815"><ele>1743</ele><time>2015-09-08T11:34:49Z</time></trkpt>
<trkpt lat="46.21309" lon="7.44813"><ele>1742.8</ele><time>2015-09-08T11:34:57Z</time></trkpt>
<trkpt lat="46.2131" lon="7.44815"><ele>1742.8</ele><time>2015-09-08T11:35:07Z</time></trkpt>
<trkpt lat="46.2131" lon="7.44816"><ele>1742.8</ele><time>2015-09-08T11:35:08Z</time></trkpt>
<trkpt lat="46.2131" lon="7.44817"><ele>1743</ele><time>2015-09-08T11:35:11Z</time></trkpt>
<trkpt lat="46.21311" lon="7.4482"><ele>1743</ele><time>2015-09-08T11:35:18Z</time></trkpt>
<trkpt lat="46.21311" lon="7.44816"><ele>1743.2</ele><time>2015-09-08T11:35:23Z</time></trkpt>
<trkpt lat="46.21309" lon="7.44819"><ele>1743.6</ele><time>2015-09-08T11:35:27Z</time></trkpt>
<trkpt lat="46.21307" lon="7.4482"><ele>1743.8</ele><time>2015-09-08T11:35:29Z</time></trkpt>
<trkpt lat="46.21304" lon="7.44816"><ele>1743.8</ele><time>2015-09-08T11:35:37Z</time></trkpt>
<trkpt lat="46.21303" lon="7.44813"><ele>1743.8</ele><time>2015-09-08T11:35:42Z</time></trkpt>
<trkpt lat="46.21306" lon="7.44815"><ele>1744.4</ele><time>2015-09-08T11:35:57Z</time></trkpt>
<trkpt lat="46.21306" lon="7.44811"><ele>1745</ele><time>2015-09-08T11:36:09Z</time></trkpt>
<trkpt lat="46.2131" lon="7.4481"><ele>1744.2</ele><time>2015-09-08T11:36:26Z</time></trkpt>
<trkpt lat="46.2131" lon="7.44809"><ele>1744</ele><time>2015-09-08T11:36:29Z</time></trkpt>
<trkpt lat="46.21311" lon="7.4481"><ele>1744</ele><time>2015-09-08T11:36:38Z</time></trkpt>
<trkpt lat="46.2131" lon="7.4481"><ele>1744</ele><time>2015-09-08T11:36:40Z</time></trkpt>
<trkpt lat="46.2131" lon="7.44811"><ele>1744</ele><time>2015-09-08T11:36:43Z</time></trkpt>
<trkpt lat="46.2131" lon="7.44812"><ele>1743.8</ele><time>2015-09-08T11:36:45Z</time></trkpt>
<trkpt lat="46.21309" lon="7.44812"><ele>1743.8</ele><time>2015-09-08T11:36:46Z</time></trkpt>
<trkpt lat="46.21309" lon="7.44812"><ele>1744</ele><time>2015-09-08T11:36:54Z</time></trkpt>
<trkpt lat="46.21309" lon="7.44812"><ele>1744</ele><time>2015-09-08T11:37:02Z</time></trkpt>
<trkpt lat="46.21309" lon="7.44812"><ele>1744</ele><time>2015-09-08T11:37:04Z</time></trkpt>
<trkpt lat="46.21311" lon="7.44813"><ele>1744.8</ele><time>2015-09-08T11:37:40Z</time></trkpt>
<trkpt lat="46.21311" lon="7.44814"><ele>1744.6</ele><time>2015-09-08T11:37:42Z</time></trkpt>
<trkpt lat="46.21308" lon="7.44812"><ele>1745.2</ele><time>2015-09-08T11:38:02Z</time></trkpt>
<trkpt lat="46.21307" lon="7.44812"><ele>1745.8</ele><time>2015-09-08T11:38:11Z</time></trkpt>
<trkpt lat="46.21309" lon="7.44813"><ele>1746</ele><time>2015-09-08T11:38:23Z</time></trkpt>
<trkpt lat="46.21307" lon="7.44814"><ele>1745.4</ele><time>2015-09-08T11:38:37Z</time></trkpt>
<trkpt lat="46.21307" lon="7.44813"><ele>1745.4</ele><time>2015-09-08T11:38:38Z</time></trkpt>
<trkpt lat="46.21307" lon="7.44814"><ele>1745.4</ele><time>2015-09-08T11:38:39Z</time></trkpt>
<trkpt lat="46.21307" lon="7.44814"><ele>1745.2</ele><time>2015-09-08T11:38:44Z</time></trkpt>
<trkpt lat="46.21307" lon="7.44814"><ele>1745</ele><time>2015-09-08T11:38:46Z</time></trkpt>
<trkpt lat="46.21306" lon="7.44814"><ele>1744.8</ele><time>2015-09-08T11:38:55Z</time></trkpt>
<trkpt lat="46.21307" lon="7.44814"><ele>1744.8</ele><time>2015-09-08T11:39:07Z</time></trkpt>
<trkpt lat="46.21309" lon="7.44814"><ele>1744.6</ele><time>2015-09-08T11:39:13Z</time></trkpt>
<trkpt lat="46.21309" lon="7.44815"><ele>1744.6</ele><time>2015-09-08T11:39:18Z</time></trkpt>
<trkpt lat="46.2131" lon="7.44815"><ele>1744.6</ele><time>2015-09-08T11:39:22Z</time></trkpt>
<trkpt lat="46.21311" lon="7.44816"><ele>1744.8</ele><time>2015-09-08T11:39:28Z</time></trkpt>
<trkpt lat="46.21311" lon="7.44816"><ele>1744.8</ele><time>2015-09-08T11:39:30Z</time></trkpt>
<trkpt lat="46.21312" lon="7.44815"><ele>1744.8</ele><time>2015-09-08T11:39:34Z</time></trkpt>
<trkpt lat="46.21311" lon="7.44815"><ele>1744.8</ele><time>2015-09-08T11:39:38Z</time></trkpt>
<trkpt lat="46.21309" lon="7.44817"><ele>1744.6</ele><time>2015-09-08T11:39:44Z</time></trkpt>
<trkpt lat="46.21305" lon="7.44817"><ele>1744.6</ele><time>2015-09-08T11:39:46Z</time></trkpt>
<trkpt lat="46.21307" lon="7.44815"><ele>1744.6</ele><time>2015-09-08T11:39:54Z</time></trkpt>
<trkpt lat="46.21307" lon="7.44815"><ele>1744.6</ele><time>2015-09-08T11:39:55Z</time></trkpt>
<trkpt lat="46.21308" lon="7.44813"><ele>1744.2</ele><time>2015-09-08T11:40:10Z</time></trkpt>
<trkpt lat="46.21307" lon="7.44816"><ele>1744</ele><time>2015-09-08T11:40:20Z</time></trkpt>
<trkpt lat="46.21307" lon="7.44817"><ele>1743.8</ele><time>2015-09-08T11:40:23Z</time></trkpt>
<trkpt lat="46.21307" lon="7.44818"><ele>1744</ele><time>2015-09-08T11:40:29Z</time></trkpt>
<trkpt lat="46.21306" lon="7.44818"><ele>1744</ele><time>2015-09-08T11:40:32Z</time></trkpt>
<trkpt lat="46.21306" lon="7.44815"><ele>1743.4</ele><time>2015-09-08T11:40:42Z</time></trkpt>
<trkpt lat="46.21307" lon="7.44811"><ele>1743</ele><time>2015-09-08T11:41:23Z</time></trkpt>
<trkpt lat="46.21307" lon="7.44812"><ele>1743</ele><time>2015-09-08T11:41:26Z</time></trkpt>
<trkpt lat="46.21308" lon="7.44814"><ele>1743.2</ele><time>2015-09-08T11:41:40Z</time></trkpt>
<trkpt lat="46.21308" lon="7.44814"><ele>1743.4</ele><time>2015-09-08T11:41:43Z</time></trkpt>
<trkpt lat="46.21308" lon="7.44814"><ele>1743.4</ele><time>2015-09-08T11:41:44Z</time></trkpt>
<trkpt lat="46.21308" lon="7.44814"><ele>1743.4</ele><time>2015-09-08T11:41:45Z</time></trkpt>
<trkpt lat="46.21307" lon="7.44814"><ele>1743.6</ele><time>2015-09-08T11:41:48Z</time></trkpt>
<trkpt lat="46.21307" lon="7.44814"><ele>1743.8</ele><time>2015-09-08T11:41:49Z</time></trkpt>
<trkpt lat="46.21307" lon="7.44814"><ele>1743.8</ele><time>2015-09-08T11:41:50Z</time></trkpt>
<trkpt lat="46.21307" lon="7.44814"><ele>1744.4</ele><time>2015-09-08T11:41:56Z</time></trkpt>
<trkpt lat="46.21306" lon="7.44814"><ele>1744.6</ele><time>2015-09-08T11:42:01Z</time></trkpt>
<trkpt lat="46.21307" lon="7.44815"><ele>1745.2</ele><time>2015-09-08T11:42:11Z</time></trkpt>
<trkpt lat="46.21307" lon="7.44814"><ele>1745</ele><time>2015-09-08T11:42:32Z</time></trkpt>
<trkpt lat="46.21307" lon="7.44814"><ele>1745</ele><time>2015-09-08T11:42:36Z</time></trkpt>
<trkpt lat="46.21307" lon="7.44813"><ele>1745</ele><time>2015-09-08T11:42:44Z</time></trkpt>
<trkpt lat="46.21308" lon="7.44812"><ele>1744.8</ele><time>2015-09-08T11:42:47Z</time></trkpt>
<trkpt lat="46.21307" lon="7.44812"><ele>1744.8</ele><time>2015-09-08T11:42:58Z</time></trkpt>
<trkpt lat="46.21308" lon="7.44813"><ele>1745</ele><time>2015-09-08T11:43:05Z</time></trkpt>
<trkpt lat="46.21307" lon="7.44813"><ele>1744.8</ele><time>2015-09-08T11:43:10Z</time></trkpt>
<trkpt lat="46.21307" lon="7.44814"><ele>1744.6</ele><time>2015-09-08T11:43:12Z</time></trkpt>
<trkpt lat="46.21308" lon="7.44817"><ele>1744</ele><time>2015-09-08T11:43:22Z</time></trkpt>
<trkpt lat="46.21311" lon="7.44816"><ele>1743.6</ele><time>2015-09-08T11:43:42Z</time></trkpt>
<trkpt lat="46.2131" lon="7.44813"><ele>1743.4</ele><time>2015-09-08T11:43:49Z</time></trkpt>
<trkpt lat="46.2131" lon="7.44812"><ele>1743.4</ele><time>2015-09-08T11:43:50Z</time></trkpt>
<trkpt lat="46.2131" lon="7.44812"><ele>1743.4</ele><time>2015-09-08T11:43:51Z</time></trkpt>
<trkpt lat="46.21309" lon="7.44812"><ele>1743.4</ele><time>2015-09-08T11:43:53Z</time></trkpt>
<trkpt lat="46.21307" lon="7.4481"><ele>1743.2</ele><time>2015-09-08T11:44:03Z</time></trkpt>
<trkpt lat="46.21307" lon="7.4481"><ele>1743.4</ele><time>2015-09-08T11:44:05Z</time></trkpt>
<trkpt lat="46.21306" lon="7.44812"><ele>1743.2</ele><time>2015-09-08T11:44:10Z</time></trkpt>
<trkpt lat="46.21306" lon="7.44812"><ele>1743.2</ele><time>2015-09-08T11:44:11Z</time></trkpt>
<trkpt lat="46.21306" lon="7.44813"><ele>1743.2</ele><time>2015-09-08T11:44:15Z</time></trkpt>
<trkpt lat="46.21306" lon="7.44814"><ele>1743.2</ele><time>2015-09-08T11:44:20Z</time></trkpt>
<trkpt lat="46.21307" lon="7.44815"><ele>1743</ele><time>2015-09-08T11:44:25Z</time></trkpt>
<trkpt lat="46.21308" lon="7.44814"><ele>1743</ele><time>2015-09-08T11:44:34Z</time></trkpt>
<trkpt lat="46.21308" lon="7.44813"><ele>1742.8</ele><time>2015-09-08T11:44:36Z</time></trkpt>
<trkpt lat="46.21308" lon="7.44814"><ele>1742.4</ele><time>2015-09-08T11:44:48Z</time></trkpt>
<trkpt lat="46.21308" lon="7.44814"><ele>1742.4</ele><time>2015-09-08T11:44:51Z</time></trkpt>
<trkpt lat="46.21308" lon="7.44817"><ele>1742.4</ele><time>2015-09-08T11:44:58Z</time></trkpt>
<trkpt lat="46.21309" lon="7.44818"><ele>1742.6</ele><time>2015-09-08T11:45:08Z</time></trkpt>
<trkpt lat="46.21309" lon="7.44818"><ele>1742.6</ele><time>2015-09-08T11:45:13Z</time></trkpt>
<trkpt lat="46.21309" lon="7.44818"><ele>1742.8</ele><time>2015-09-08T11:45:14Z</time></trkpt>
<trkpt lat="46.21309" lon="7.44819"><ele>1742.8</ele><time>2015-09-08T11:45:20Z</time></trkpt>
<trkpt lat="46.21309" lon="7.44819"><ele>1742.8</ele><time>2015-09-08T11:45:22Z</time></trkpt>
<trkpt lat="46.21309" lon="7.44819"><ele>1742.8</ele><time>2015-09-08T11:45:23Z</time></trkpt>
<trkpt lat="46.21308" lon="7.44819"><ele>1742.6</ele><time>2015-09-08T11:45:25Z</time></trkpt>
<trkpt lat="46.21308" lon="7.44819"><ele>1742.4</ele><time>2015-09-08T11:45:27Z</time></trkpt>
<trkpt lat="46.21308" lon="7.44818"><ele>1742.4</ele><time>2015-09-08T11:45:29Z</time></trkpt>
<trkpt lat="46.21307" lon="7.44816"><ele>1742</ele><time>2015-09-08T11:45:39Z</time></trkpt>
<trkpt lat="46.21306" lon="7.44819"><ele>1743.4</ele><time>2015-09-08T11:45:56Z</time></trkpt>
<trkpt lat="46.21304" lon="7.44818"><ele>1744.6</ele><time>2015-09-08T11:46:05Z</time></trkpt>
<trkpt lat="46.21303" lon="7.44814"><ele>1745.2</ele><time>2015-09-08T11:46:13Z</time></trkpt>
<trkpt lat="46.21303" lon="7.44812"><ele>1745.6</ele><time>2015-09-08T11:46:21Z</time></trkpt>
<trkpt lat="46.21302" lon="7.44811"><ele>1745.4</ele><time>2015-09-08T11:46:29Z</time></trkpt>
<trkpt lat="46.21302" lon="7.44811"><ele>1745.4</ele><time>2015-09-08T11:46:32Z</time></trkpt>
<trkpt lat="46.21302" lon="7.44811"><ele>1745.6</ele><time>2015-09-08T11:46:34Z</time></trkpt>
<trkpt lat="46.21302" lon="7.44813"><ele>1746</ele><time>2015-09-08T11:46:42Z</time></trkpt>
<trkpt lat="46.21302" lon="7.44814"><ele>1746.2</ele><time>2015-09-08T11:46:43Z</time></trkpt>
<trkpt lat="46.21303" lon="7.44815"><ele>1746.4</ele><time>2015-09-08T11:46:47Z</time></trkpt>
<trkpt lat="46.21303" lon="7.44815"><ele>1746.6</ele><time>2015-09-08T11:46:50Z</time></trkpt>
<trkpt lat="46.21303" lon="7.44814"><ele>1746.6</ele><time>2015-09-08T11:46:53Z</time></trkpt>
<trkpt lat="46.21302" lon="7.44812"><ele>1746.8</ele><time>2015-09-08T11:47:05Z</time></trkpt>
<trkpt lat="46.213" lon="7.44813"><ele>1746.8</ele><time>2015-09-08T11:47:10Z</time></trkpt>
<trkpt lat="46.21299" lon="7.44811"><ele>1747.2</ele><time>2015-09-08T11:47:15Z</time></trkpt>
<trkpt lat="46.21301" lon="7.4481"><ele>1747</ele><time>2015-09-08T11:47:25Z</time></trkpt>
<trkpt lat="46.21305" lon="7.44811"><ele>1747</ele><time>2015-09-08T11:47:42Z</time></trkpt>
<trkpt lat="46.21306" lon="7.44812"><ele>1746.8</ele><time>2015-09-08T11:47:46Z</time></trkpt>
<trkpt lat="46.21306" lon="7.44812"><ele>1746.8</ele><time>2015-09-08T11:47:48Z</time></trkpt>
<trkpt lat="46.21307" lon="7.44812"><ele>1746.6</ele><time>2015-09-08T11:47:52Z</time></trkpt>
<trkpt lat="46.21307" lon="7.44813"><ele>1746.4</ele><time>2015-09-08T11:47:59Z</time></trkpt>
<trkpt lat="46.21307" lon="7.44814"><ele>1746.4</ele><time>2015-09-08T11:48:02Z</time></trkpt>
<trkpt lat="46.21307" lon="7.44815"><ele>1746.4</ele><time>2015-09-08T11:48:04Z</time></trkpt>
<trkpt lat="46.21307" lon="7.44815"><ele>1746.4</ele><time>2015-09-08T11:48:06Z</time></trkpt>
<trkpt lat="46.21307" lon="7.44815"><ele>1746.4</ele><time>2015-09-08T11:48:07Z</time></trkpt>
<trkpt lat="46.21308" lon="7.44816"><ele>1746.2</ele><time>2015-09-08T11:48:08Z</time></trkpt>
<trkpt lat="46.21309" lon="7.44818"><ele>1746</ele><time>2015-09-08T11:48:12Z</time></trkpt>
<trkpt lat="46.21311" lon="7.44819"><ele>1745.8</ele><time>2015-09-08T11:48:17Z</time></trkpt>
<trkpt lat="46.2131" lon="7.44818"><ele>1745.4</ele><time>2015-09-08T11:48:32Z</time></trkpt>
<trkpt lat="46.21308" lon="7.44818"><ele>1745.6</ele><time>2015-09-08T11:49:05Z</time></trkpt>
<trkpt lat="46.21307" lon="7.44816"><ele>1745.8</ele><time>2015-09-08T11:49:17Z</time></trkpt>
<trkpt lat="46.213" lon="7.44824"><ele>1746.8</ele><time>2015-09-08T11:49:36Z</time></trkpt>
<trkpt lat="46.213" lon="7.44827"><ele>1746.8</ele><time>2015-09-08T11:49:38Z</time></trkpt>
<trkpt lat="46.21299" lon="7.4484"><ele>1746.6</ele><time>2015-09-08T11:49:48Z</time></trkpt>
<trkpt lat="46.213" lon="7.44845"><ele>1746.6</ele><time>2015-09-08T11:49:51Z</time></trkpt>
<trkpt lat="46.21299" lon="7.44857"><ele>1746.6</ele><time>2015-09-08T11:49:58Z</time></trkpt>
<trkpt lat="46.21284" lon="7.4487"><ele>1747.8</ele><time>2015-09-08T11:50:10Z</time></trkpt>
<trkpt lat="46.21281" lon="7.4487"><ele>1748</ele><time>2015-09-08T11:50:11Z</time></trkpt>
<trkpt lat="46.21265" lon="7.44882"><ele>1750.8</ele><time>2015-09-08T11:50:20Z</time></trkpt>
<trkpt lat="46.21247" lon="7.44891"><ele>1752.4</ele><time>2015-09-08T11:50:28Z</time></trkpt>
<trkpt lat="46.21239" lon="7.44905"><ele>1753</ele><time>2015-09-08T11:50:34Z</time></trkpt>
<trkpt lat="46.21222" lon="7.44914"><ele>1755</ele><time>2015-09-08T11:50:41Z</time></trkpt>
<trkpt lat="46.21202" lon="7.44914"><ele>1758.8</ele><time>2015-09-08T11:50:48Z</time></trkpt>
<trkpt lat="46.21183" lon="7.44917"><ele>1764.2</ele><time>2015-09-08T11:50:56Z</time></trkpt>
<trkpt lat="46.21171" lon="7.4492"><ele>1765.4</ele><time>2015-09-08T11:51:00Z</time></trkpt>
<trkpt lat="46.21151" lon="7.4493"><ele>1762.2</ele><time>2015-09-08T11:51:08Z</time></trkpt>
<trkpt lat="46.21135" lon="7.44929"><ele>1759</ele><time>2015-09-08T11:51:13Z</time></trkpt>
<trkpt lat="46.21131" lon="7.44929"><ele>1758.4</ele><time>2015-09-08T11:51:14Z</time></trkpt>
<trkpt lat="46.21128" lon="7.44929"><ele>1757.2</ele><time>2015-09-08T11:51:15Z</time></trkpt>
<trkpt lat="46.21118" lon="7.44936"><ele>1754.8</ele><time>2015-09-08T11:51:20Z</time></trkpt>
<trkpt lat="46.21103" lon="7.4495"><ele>1751.6</ele><time>2015-09-08T11:51:28Z</time></trkpt>
<trkpt lat="46.21092" lon="7.44952"><ele>1751</ele><time>2015-09-08T11:51:32Z</time></trkpt>
<trkpt lat="46.21076" lon="7.44965"><ele>1749.4</ele><time>2015-09-08T11:51:38Z</time></trkpt>
<trkpt lat="46.21059" lon="7.44975"><ele>1749.4</ele><time>2015-09-08T11:51:44Z</time></trkpt>
<trkpt lat="46.21053" lon="7.44975"><ele>1749</ele><time>2015-09-08T11:51:46Z</time></trkpt>
<trkpt lat="46.21037" lon="7.44965"><ele>1747.6</ele><time>2015-09-08T11:51:56Z</time></trkpt>
<trkpt lat="46.21035" lon="7.44971"><ele>1746.2</ele><time>2015-09-08T11:52:07Z</time></trkpt>
<trkpt lat="46.21027" lon="7.44983"><ele>1746.6</ele><time>2015-09-08T11:52:15Z</time></trkpt>
<trkpt lat="46.21022" lon="7.44979"><ele>1746.6</ele><time>2015-09-08T11:52:19Z</time></trkpt>
<trkpt lat="46.2102" lon="7.44977"><ele>1746.2</ele><time>2015-09-08T11:52:22Z</time></trkpt>
<trkpt lat="46.21005" lon="7.44961"><ele>1745.4</ele><time>2015-09-08T11:52:34Z</time></trkpt>
<trkpt lat="46.21" lon="7.44957"><ele>1745.4</ele><time>2015-09-08T11:52:37Z</time></trkpt>
<trkpt lat="46.20996" lon="7.44952"><ele>1745</ele><time>2015-09-08T11:52:40Z</time></trkpt>
<trkpt lat="46.2099" lon="7.44944"><ele>1744</ele><time>2015-09-08T11:52:45Z</time></trkpt>
<trkpt lat="46.20988" lon="7.44943"><ele>1743</ele><time>2015-09-08T11:52:49Z</time></trkpt>
<trkpt lat="46.20984" lon="7.44939"><ele>1741.8</ele><time>2015-09-08T11:52:54Z</time></trkpt>
<trkpt lat="46.20974" lon="7.44935"><ele>1740.6</ele><time>2015-09-08T11:53:01Z</time></trkpt>
<trkpt lat="46.20974" lon="7.44937"><ele>1740.4</ele><time>2015-09-08T11:53:13Z</time></trkpt>
<trkpt lat="46.20975" lon="7.44938"><ele>1739.8</ele><time>2015-09-08T11:53:23Z</time></trkpt>
<trkpt lat="46.20977" lon="7.44935"><ele>1738.4</ele><time>2015-09-08T11:53:44Z</time></trkpt>
<trkpt lat="46.20978" lon="7.44935"><ele>1738.4</ele><time>2015-09-08T11:53:45Z</time></trkpt>
<trkpt lat="46.20977" lon="7.44936"><ele>1737.2</ele><time>2015-09-08T11:54:10Z</time></trkpt>
<trkpt lat="46.20977" lon="7.44937"><ele>1737</ele><time>2015-09-08T11:54:16Z</time></trkpt>
<trkpt lat="46.20977" lon="7.44938"><ele>1736.8</ele><time>2015-09-08T11:54:21Z</time></trkpt>
<trkpt lat="46.20976" lon="7.44929"><ele>1737.2</ele><time>2015-09-08T11:54:50Z</time></trkpt>
<trkpt lat="46.20976" lon="7.44924"><ele>1737.2</ele><time>2015-09-08T11:55:05Z</time></trkpt>
<trkpt lat="46.20976" lon="7.44924"><ele>1737.2</ele><time>2015-09-08T11:55:08Z</time></trkpt>
<trkpt lat="46.20976" lon="7.44925"><ele>1737.2</ele><time>2015-09-08T11:55:10Z</time></trkpt>
<trkpt lat="46.20976" lon="7.4493"><ele>1737.2</ele><time>2015-09-08T11:55:14Z</time></trkpt>
<trkpt lat="46.20976" lon="7.44931"><ele>1737.4</ele><time>2015-09-08T11:55:15Z</time></trkpt>
<trkpt lat="46.20975" lon="7.44933"><ele>1737.4</ele><time>2015-09-08T11:55:18Z</time></trkpt>
<trkpt lat="46.20973" lon="7.44935"><ele>1737.2</ele><time>2015-09-08T11:55:25Z</time></trkpt>
<trkpt lat="46.20975" lon="7.44939"><ele>1736.6</ele><time>2015-09-08T11:55:38Z</time></trkpt>
<trkpt lat="46.20975" lon="7.44939"><ele>1736.6</ele><time>2015-09-08T11:55:39Z</time></trkpt>
<trkpt lat="46.20975" lon="7.44939"><ele>1736.6</ele><time>2015-09-08T11:55:40Z</time></trkpt>
<trkpt lat="46.20975" lon="7.44939"><ele>1736.4</ele><time>2015-09-08T11:55:48Z</time></trkpt>
<trkpt lat="46.20977" lon="7.4494"><ele>1736.2</ele><time>2015-09-08T11:55:54Z</time></trkpt>
<trkpt lat="46.20978" lon="7.4494"><ele>1735.4</ele><time>2015-09-08T11:56:02Z</time></trkpt>
<trkpt lat="46.20985" lon="7.44942"><ele>1735.2</ele><time>2015-09-08T11:56:09Z</time></trkpt>
<trkpt lat="46.20993" lon="7.4495"><ele>1735</ele><time>2015-09-08T11:56:13Z</time></trkpt>
<trkpt lat="46.20996" lon="7.44957"><ele>1735</ele><time>2015-09-08T11:56:16Z</time></trkpt>
<trkpt lat="46.20997" lon="7.44957"><ele>1734.8</ele><time>2015-09-08T11:56:17Z</time></trkpt>
<trkpt lat="46.20995" lon="7.44952"><ele>1734</ele><time>2015-09-08T11:56:25Z</time></trkpt>
<trkpt lat="46.20991" lon="7.44946"><ele>1733.8</ele><time>2015-09-08T11:56:27Z</time></trkpt>
<trkpt lat="46.20975" lon="7.44934"><ele>1731.8</ele><time>2015-09-08T11:56:36Z</time></trkpt>
<trkpt lat="46.20975" lon="7.44934"><ele>1732</ele><time>2015-09-08T11:56:38Z</time></trkpt>
<trkpt lat="46.2098" lon="7.44937"><ele>1731.8</ele><time>2015-09-08T11:56:43Z</time></trkpt>
<trkpt lat="46.20976" lon="7.44933"><ele>1731</ele><time>2015-09-08T11:56:51Z</time></trkpt>
<trkpt lat="46.20972" lon="7.44932"><ele>1730.6</ele><time>2015-09-08T11:57:01Z</time></trkpt>
<trkpt lat="46.20972" lon="7.44931"><ele>1730.4</ele><time>2015-09-08T11:57:06Z</time></trkpt>
<trkpt lat="46.20973" lon="7.44931"><ele>1730.2</ele><time>2015-09-08T11:57:12Z</time></trkpt>
<trkpt lat="46.20973" lon="7.44927"><ele>1729.4</ele><time>2015-09-08T11:57:22Z</time></trkpt>
<trkpt lat="46.20978" lon="7.44933"><ele>1728.8</ele><time>2015-09-08T11:57:31Z</time></trkpt>
<trkpt lat="46.20979" lon="7.44933"><ele>1728.8</ele><time>2015-09-08T11:57:32Z</time></trkpt>
<trkpt lat="46.2098" lon="7.44934"><ele>1728.8</ele><time>2015-09-08T11:57:33Z</time></trkpt>
<trkpt lat="46.20979" lon="7.44935"><ele>1728.6</ele><time>2015-09-08T11:57:35Z</time></trkpt>
<trkpt lat="46.20978" lon="7.44935"><ele>1728.4</ele><time>2015-09-08T11:57:36Z</time></trkpt>
<trkpt lat="46.20981" lon="7.44937"><ele>1728.6</ele><time>2015-09-08T11:57:39Z</time></trkpt>
<trkpt lat="46.20982" lon="7.44937"><ele>1728.8</ele><time>2015-09-08T11:57:40Z</time></trkpt>
<trkpt lat="46.20984" lon="7.44939"><ele>1728.6</ele><time>2015-09-08T11:57:42Z</time></trkpt>
<trkpt lat="46.2099" lon="7.44942"><ele>1728.8</ele><time>2015-09-08T11:57:47Z</time></trkpt>
<trkpt lat="46.20995" lon="7.4495"><ele>1729.4</ele><time>2015-09-08T11:57:54Z</time></trkpt>
<trkpt lat="46.20995" lon="7.44951"><ele>1729.6</ele><time>2015-09-08T11:57:55Z</time></trkpt>
<trkpt lat="46.20987" lon="7.44942"><ele>1730.6</ele><time>2015-09-08T11:58:05Z</time></trkpt>
<trkpt lat="46.2097" lon="7.44931"><ele>1730</ele><time>2015-09-08T11:58:11Z</time></trkpt>
<trkpt lat="46.20964" lon="7.44931"><ele>1730.2</ele><time>2015-09-08T11:58:15Z</time></trkpt>
<trkpt lat="46.20964" lon="7.44931"><ele>1730.2</ele><time>2015-09-08T11:58:16Z</time></trkpt>
<trkpt lat="46.20968" lon="7.44928"><ele>1731</ele><time>2015-09-08T11:58:23Z</time></trkpt>
<trkpt lat="46.20965" lon="7.44931"><ele>1731.4</ele><time>2015-09-08T11:58:34Z</time></trkpt>
<trkpt lat="46.20966" lon="7.44934"><ele>1732.6</ele><time>2015-09-08T11:58:48Z</time></trkpt>
<trkpt lat="46.20964" lon="7.44939"><ele>1735.4</ele><time>2015-09-08T11:59:43Z</time></trkpt>
<trkpt lat="46.20963" lon="7.44939"><ele>1735.6</ele><time>2015-09-08T11:59:45Z</time></trkpt>
<trkpt lat="46.20964" lon="7.44938"><ele>1736</ele><time>2015-09-08T11:59:55Z</time></trkpt>
<trkpt lat="46.20947" lon="7.44927"><ele>1734.6</ele><time>2015-09-08T12:00:15Z</time></trkpt>
<trkpt lat="46.20933" lon="7.44909"><ele>1732.8</ele><time>2015-09-08T12:00:24Z</time></trkpt>
<trkpt lat="46.20916" lon="7.44899"><ele>1730.4</ele><time>2015-09-08T12:00:32Z</time></trkpt>
<trkpt lat="46.2091" lon="7.44895"><ele>1728.8</ele><time>2015-09-08T12:00:34Z</time></trkpt>
<trkpt lat="46.20896" lon="7.44888"><ele>1726.4</ele><time>2015-09-08T12:00:38Z</time></trkpt>
<trkpt lat="46.20884" lon="7.44878"><ele>1720.8</ele><time>2015-09-08T12:00:43Z</time></trkpt>
<trkpt lat="46.20883" lon="7.44877"><ele>1720.4</ele><time>2015-09-08T12:00:44Z</time></trkpt>
<trkpt lat="46.20879" lon="7.44875"><ele>1719.2</ele><time>2015-09-08T12:00:52Z</time></trkpt>
<trkpt lat="46.20878" lon="7.44875"><ele>1719.4</ele><time>2015-09-08T12:00:53Z</time></trkpt>
<trkpt lat="46.20876" lon="7.44876"><ele>1718.4</ele><time>2015-09-08T12:00:58Z</time></trkpt>
<trkpt lat="46.20875" lon="7.44875"><ele>1717.8</ele><time>2015-09-08T12:01:00Z</time></trkpt>
<trkpt lat="46.20875" lon="7.44873"><ele>1717.2</ele><time>2015-09-08T12:01:04Z</time></trkpt>
<trkpt lat="46.20873" lon="7.44873"><ele>1716.4</ele><time>2015-09-08T12:01:09Z</time></trkpt>
<trkpt lat="46.2087" lon="7.44869"><ele>1715.6</ele><time>2015-09-08T12:01:13Z</time></trkpt>
<trkpt lat="46.20869" lon="7.44871"><ele>1712.6</ele><time>2015-09-08T12:01:49Z</time></trkpt>
<trkpt lat="46.2087" lon="7.44869"><ele>1712</ele><time>2015-09-08T12:01:57Z</time></trkpt>
<trkpt lat="46.20877" lon="7.44875"><ele>1710.8</ele><time>2015-09-08T12:02:22Z</time></trkpt>
<trkpt lat="46.20876" lon="7.44873"><ele>1710.2</ele><time>2015-09-08T12:02:32Z</time></trkpt>
<trkpt lat="46.20877" lon="7.44871"><ele>1710</ele><time>2015-09-08T12:02:41Z</time></trkpt>
<trkpt lat="46.20876" lon="7.44871"><ele>1710</ele><time>2015-09-08T12:02:45Z</time></trkpt>
<trkpt lat="46.20876" lon="7.44872"><ele>1709.8</ele><time>2015-09-08T12:02:54Z</time></trkpt>
<trkpt lat="46.20878" lon="7.44871"><ele>1710.2</ele><time>2015-09-08T12:03:12Z</time></trkpt>
<trkpt lat="46.20878" lon="7.44871"><ele>1710.2</ele><time>2015-09-08T12:03:14Z</time></trkpt>
<trkpt lat="46.20878" lon="7.44871"><ele>1710.2</ele><time>2015-09-08T12:03:17Z</time></trkpt>
<trkpt lat="46.20878" lon="7.44871"><ele>1710.2</ele><time>2015-09-08T12:03:19Z</time></trkpt>
<trkpt lat="46.20878" lon="7.44871"><ele>1710.2</ele><time>2015-09-08T12:03:21Z</time></trkpt>
<trkpt lat="46.20878" lon="7.44872"><ele>1710.2</ele><time>2015-09-08T12:03:23Z</time></trkpt>
<trkpt lat="46.20881" lon="7.44873"><ele>1710.2</ele><time>2015-09-08T12:03:28Z</time></trkpt>
<trkpt lat="46.20881" lon="7.44876"><ele>1710.6</ele><time>2015-09-08T12:03:36Z</time></trkpt>
<trkpt lat="46.20886" lon="7.44882"><ele>1710.8</ele><time>2015-09-08T12:03:54Z</time></trkpt>
<trkpt lat="46.20892" lon="7.44886"><ele>1711</ele><time>2015-09-08T12:04:00Z</time></trkpt>
<trkpt lat="46.20893" lon="7.44887"><ele>1711</ele><time>2015-09-08T12:04:01Z</time></trkpt>
<trkpt lat="46.20894" lon="7.44888"><ele>1711</ele><time>2015-09-08T12:04:02Z</time></trkpt>
<trkpt lat="46.20898" lon="7.44891"><ele>1711.4</ele><time>2015-09-08T12:04:20Z</time></trkpt>
<trkpt lat="46.20882" lon="7.44881"><ele>1710.8</ele><time>2015-09-08T12:04:26Z</time></trkpt>
<trkpt lat="46.20876" lon="7.44875"><ele>1710.4</ele><time>2015-09-08T12:04:29Z</time></trkpt>
<trkpt lat="46.20875" lon="7.44872"><ele>1709.8</ele><time>2015-09-08T12:04:41Z</time></trkpt>
<trkpt lat="46.20877" lon="7.44873"><ele>1710</ele><time>2015-09-08T12:04:49Z</time></trkpt>
<trkpt lat="46.20877" lon="7.44872"><ele>1710</ele><time>2015-09-08T12:04:52Z</time></trkpt>
<trkpt lat="46.20878" lon="7.44872"><ele>1710</ele><time>2015-09-08T12:04:57Z</time></trkpt>
<trkpt lat="46.20878" lon="7.44872"><ele>1710.2</ele><time>2015-09-08T12:05:06Z</time></trkpt>
<trkpt lat="46.20878" lon="7.44873"><ele>1710.4</ele><time>2015-09-08T12:05:08Z</time></trkpt>
<trkpt lat="46.2088" lon="7.44875"><ele>1711</ele><time>2015-09-08T12:05:20Z</time></trkpt>
<trkpt lat="46.20882" lon="7.44879"><ele>1711</ele><time>2015-09-08T12:05:26Z</time></trkpt>
<trkpt lat="46.20887" lon="7.44884"><ele>1711.2</ele><time>2015-09-08T12:05:32Z</time></trkpt>
<trkpt lat="46.2089" lon="7.44887"><ele>1711.2</ele><time>2015-09-08T12:05:35Z</time></trkpt>
<trkpt lat="46.20896" lon="7.4489"><ele>1711.2</ele><time>2015-09-08T12:05:40Z</time></trkpt>
<trkpt lat="46.209" lon="7.44893"><ele>1711.2</ele><time>2015-09-08T12:05:44Z</time></trkpt>
<trkpt lat="46.20904" lon="7.44895"><ele>1711.2</ele><time>2015-09-08T12:05:47Z</time></trkpt>
<trkpt lat="46.20907" lon="7.44896"><ele>1711</ele><time>2015-09-08T12:05:49Z</time></trkpt>
<trkpt lat="46.20892" lon="7.44887"><ele>1711.8</ele><time>2015-09-08T12:06:00Z</time></trkpt>
<trkpt lat="46.20882" lon="7.44881"><ele>1711.2</ele><time>2015-09-08T12:06:04Z</time></trkpt>
<trkpt lat="46.20873" lon="7.44873"><ele>1710</ele><time>2015-09-08T12:06:09Z</time></trkpt>
<trkpt lat="46.20875" lon="7.44874"><ele>1709.6</ele><time>2015-09-08T12:06:18Z</time></trkpt>
<trkpt lat="46.20875" lon="7.44871"><ele>1710</ele><time>2015-09-08T12:06:29Z</time></trkpt>
<trkpt lat="46.20873" lon="7.44868"><ele>1710</ele><time>2015-09-08T12:06:40Z</time></trkpt>
<trkpt lat="46.20871" lon="7.44869"><ele>1710.2</ele><time>2015-09-08T12:06:48Z</time></trkpt>
<trkpt lat="46.20871" lon="7.44869"><ele>1710.2</ele><time>2015-09-08T12:06:49Z</time></trkpt>
<trkpt lat="46.2087" lon="7.44868"><ele>1710.6</ele><time>2015-09-08T12:06:54Z</time></trkpt>
<trkpt lat="46.20853" lon="7.44867"><ele>1710.8</ele><time>2015-09-08T12:07:07Z</time></trkpt>
<trkpt lat="46.20841" lon="7.44867"><ele>1709.8</ele><time>2015-09-08T12:07:11Z</time></trkpt>
<trkpt lat="46.20829" lon="7.44869"><ele>1707.8</ele><time>2015-09-08T12:07:16Z</time></trkpt>
<trkpt lat="46.20825" lon="7.44877"><ele>1707.2</ele><time>2015-09-08T12:07:19Z</time></trkpt>
<trkpt lat="46.20823" lon="7.4488"><ele>1706.8</ele><time>2015-09-08T12:07:20Z</time></trkpt>
<trkpt lat="46.20805" lon="7.44878"><ele>1703.4</ele><time>2015-09-08T12:07:29Z</time></trkpt>
<trkpt lat="46.20803" lon="7.44857"><ele>1699.2</ele><time>2015-09-08T12:07:37Z</time></trkpt>
<trkpt lat="46.20804" lon="7.44854"><ele>1698.4</ele><time>2015-09-08T12:07:38Z</time></trkpt>
<trkpt lat="46.20803" lon="7.44847"><ele>1696.2</ele><time>2015-09-08T12:07:41Z</time></trkpt>
<trkpt lat="46.20802" lon="7.44844"><ele>1695.6</ele><time>2015-09-08T12:07:42Z</time></trkpt>
<trkpt lat="46.20795" lon="7.44821"><ele>1692.6</ele><time>2015-09-08T12:07:49Z</time></trkpt>
<trkpt lat="46.20796" lon="7.44817"><ele>1691.6</ele><time>2015-09-08T12:07:51Z</time></trkpt>
<trkpt lat="46.20796" lon="7.44817"><ele>1691.8</ele><time>2015-09-08T12:07:53Z</time></trkpt>
<trkpt lat="46.20798" lon="7.44819"><ele>1691.4</ele><time>2015-09-08T12:07:59Z</time></trkpt>
<trkpt lat="46.20803" lon="7.44821"><ele>1690.8</ele><time>2015-09-08T12:08:02Z</time></trkpt>
<trkpt lat="46.20805" lon="7.4482"><ele>1690.8</ele><time>2015-09-08T12:08:03Z</time></trkpt>
<trkpt lat="46.20826" lon="7.44813"><ele>1690.2</ele><time>2015-09-08T12:08:10Z</time></trkpt>
<trkpt lat="46.20829" lon="7.44812"><ele>1690.2</ele><time>2015-09-08T12:08:11Z</time></trkpt>
<trkpt lat="46.20849" lon="7.4481"><ele>1689.4</ele><time>2015-09-08T12:08:16Z</time></trkpt>
<trkpt lat="46.20869" lon="7.44806"><ele>1688</ele><time>2015-09-08T12:08:21Z</time></trkpt>
<trkpt lat="46.20887" lon="7.44799"><ele>1686.8</ele><time>2015-09-08T12:08:25Z</time></trkpt>
<trkpt lat="46.20895" lon="7.44796"><ele>1686</ele><time>2015-09-08T12:08:27Z</time></trkpt>
<trkpt lat="46.20897" lon="7.44795"><ele>1686</ele><time>2015-09-08T12:08:28Z</time></trkpt>
<trkpt lat="46.2091" lon="7.44795"><ele>1686.4</ele><time>2015-09-08T12:08:34Z</time></trkpt>
<trkpt lat="46.20929" lon="7.44795"><ele>1685.2</ele><time>2015-09-08T12:08:39Z</time></trkpt>
<trkpt lat="46.2095" lon="7.44792"><ele>1685</ele><time>2015-09-08T12:08:43Z</time></trkpt>
<trkpt lat="46.20962" lon="7.44788"><ele>1684.2</ele><time>2015-09-08T12:08:45Z</time></trkpt>
<trkpt lat="46.20975" lon="7.44782"><ele>1683.4</ele><time>2015-09-08T12:08:47Z</time></trkpt>
<trkpt lat="46.20981" lon="7.44778"><ele>1682.2</ele><time>2015-09-08T12:08:48Z</time></trkpt>
<trkpt lat="46.20997" lon="7.44757"><ele>1680.6</ele><time>2015-09-08T12:08:51Z</time></trkpt>
<trkpt lat="46.21001" lon="7.44748"><ele>1680</ele><time>2015-09-08T12:08:52Z</time></trkpt>
<trkpt lat="46.21009" lon="7.44733"><ele>1678</ele><time>2015-09-08T12:08:54Z</time></trkpt>
<trkpt lat="46.21022" lon="7.44712"><ele>1676</ele><time>2015-09-08T12:08:57Z</time></trkpt>
<trkpt lat="46.21026" lon="7.44706"><ele>1675.4</ele><time>2015-09-08T12:08:58Z</time></trkpt>
<trkpt lat="46.21031" lon="7.447"><ele>1674.8</ele><time>2015-09-08T12:08:59Z</time></trkpt>
<trkpt lat="46.21048" lon="7.44687"><ele>1671.8</ele><time>2015-09-08T12:09:02Z</time></trkpt>
<trkpt lat="46.21069" lon="7.44676"><ele>1668.8</ele><time>2015-09-08T12:09:05Z</time></trkpt>
<trkpt lat="46.21087" lon="7.44656"><ele>1666.2</ele><time>2015-09-08T12:09:08Z</time></trkpt>
<trkpt lat="46.21095" lon="7.44636"><ele>1664</ele><time>2015-09-08T12:09:10Z</time></trkpt>
<trkpt lat="46.21107" lon="7.44605"><ele>1661.2</ele><time>2015-09-08T12:09:13Z</time></trkpt>
<trkpt lat="46.21111" lon="7.44596"><ele>1660.2</ele><time>2015-09-08T12:09:14Z</time></trkpt>
<trkpt lat="46.21125" lon="7.44572"><ele>1657.2</ele><time>2015-09-08T12:09:17Z</time></trkpt>
<trkpt lat="46.21135" lon="7.44556"><ele>1654.4</ele><time>2015-09-08T12:09:20Z</time></trkpt>
<trkpt lat="46.21145" lon="7.44547"><ele>1653</ele><time>2015-09-08T12:09:24Z</time></trkpt>
<trkpt lat="46.21154" lon="7.44538"><ele>1653</ele><time>2015-09-08T12:09:29Z</time></trkpt>
<trkpt lat="46.2117" lon="7.44524"><ele>1652.4</ele><time>2015-09-08T12:09:35Z</time></trkpt>
<trkpt lat="46.21165" lon="7.44515"><ele>1653.4</ele><time>2015-09-08T12:09:40Z</time></trkpt>
<trkpt lat="46.21143" lon="7.44516"><ele>1654</ele><time>2015-09-08T12:09:45Z</time></trkpt>
<trkpt lat="46.21124" lon="7.44521"><ele>1653.6</ele><time>2015-09-08T12:09:48Z</time></trkpt>
<trkpt lat="46.211" lon="7.44527"><ele>1651</ele><time>2015-09-08T12:09:51Z</time></trkpt>
<trkpt lat="46.21091" lon="7.44531"><ele>1649.2</ele><time>2015-09-08T12:09:52Z</time></trkpt>
<trkpt lat="46.21074" lon="7.4454"><ele>1647.2</ele><time>2015-09-08T12:09:54Z</time></trkpt>
<trkpt lat="46.21057" lon="7.44551"><ele>1645.4</ele><time>2015-09-08T12:09:56Z</time></trkpt>
<trkpt lat="46.21033" lon="7.44564"><ele>1642.4</ele><time>2015-09-08T12:09:59Z</time></trkpt>
<trkpt lat="46.21009" lon="7.44576"><ele>1640</ele><time>2015-09-08T12:10:02Z</time></trkpt>
<trkpt lat="46.20984" lon="7.44586"><ele>1637.6</ele><time>2015-09-08T12:10:05Z</time></trkpt>
<trkpt lat="46.20962" lon="7.44599"><ele>1634.6</ele><time>2015-09-08T12:10:08Z</time></trkpt>
<trkpt lat="46.20946" lon="7.44607"><ele>1632</ele><time>2015-09-08T12:10:10Z</time></trkpt>
<trkpt lat="46.20937" lon="7.4461"><ele>1630.4</ele><time>2015-09-08T12:10:11Z</time></trkpt>
<trkpt lat="46.20918" lon="7.44608"><ele>1627.6</ele><time>2015-09-08T12:10:13Z</time></trkpt>
<trkpt lat="46.209" lon="7.44598"><ele>1625</ele><time>2015-09-08T12:10:15Z</time></trkpt>
<trkpt lat="46.20884" lon="7.44587"><ele>1621.8</ele><time>2015-09-08T12:10:17Z</time></trkpt>
<trkpt lat="46.2086" lon="7.44569"><ele>1617.4</ele><time>2015-09-08T12:10:20Z</time></trkpt>
<trkpt lat="46.20843" lon="7.44557"><ele>1615.8</ele><time>2015-09-08T12:10:22Z</time></trkpt>
<trkpt lat="46.20825" lon="7.44545"><ele>1613.2</ele><time>2015-09-08T12:10:24Z</time></trkpt>
<trkpt lat="46.20807" lon="7.44532"><ele>1612.4</ele><time>2015-09-08T12:10:26Z</time></trkpt>
<trkpt lat="46.20789" lon="7.44521"><ele>1610.8</ele><time>2015-09-08T12:10:28Z</time></trkpt>
<trkpt lat="46.20771" lon="7.44509"><ele>1609.2</ele><time>2015-09-08T12:10:30Z</time></trkpt>
<trkpt lat="46.20754" lon="7.44494"><ele>1607.8</ele><time>2015-09-08T12:10:32Z</time></trkpt>
<trkpt lat="46.2074" lon="7.44475"><ele>1606.2</ele><time>2015-09-08T12:10:34Z</time></trkpt>
<trkpt lat="46.20734" lon="7.44465"><ele>1605.4</ele><time>2015-09-08T12:10:35Z</time></trkpt>
<trkpt lat="46.20716" lon="7.44437"><ele>1602.4</ele><time>2015-09-08T12:10:38Z</time></trkpt>
<trkpt lat="46.20705" lon="7.44414"><ele>1600.2</ele><time>2015-09-08T12:10:41Z</time></trkpt>
<trkpt lat="46.20703" lon="7.44411"><ele>1599.4</ele><time>2015-09-08T12:10:42Z</time></trkpt>
<trkpt lat="46.20697" lon="7.44403"><ele>1597</ele><time>2015-09-08T12:10:46Z</time></trkpt>
<trkpt lat="46.2068" lon="7.44386"><ele>1595.4</ele><time>2015-09-08T12:10:50Z</time></trkpt>
<trkpt lat="46.20663" lon="7.44369"><ele>1595.2</ele><time>2015-09-08T12:10:53Z</time></trkpt>
<trkpt lat="46.20648" lon="7.44357"><ele>1594</ele><time>2015-09-08T12:10:55Z</time></trkpt>
<trkpt lat="46.20632" lon="7.44345"><ele>1593</ele><time>2015-09-08T12:10:57Z</time></trkpt>
<trkpt lat="46.20624" lon="7.44338"><ele>1592.6</ele><time>2015-09-08T12:10:58Z</time></trkpt>
<trkpt lat="46.2061" lon="7.44318"><ele>1590.6</ele><time>2015-09-08T12:11:00Z</time></trkpt>
<trkpt lat="46.20598" lon="7.44296"><ele>1589.8</ele><time>2015-09-08T12:11:02Z</time></trkpt>
<trkpt lat="46.20589" lon="7.44269"><ele>1589.6</ele><time>2015-09-08T12:11:04Z</time></trkpt>
<trkpt lat="46.20585" lon="7.44242"><ele>1588.4</ele><time>2015-09-08T12:11:06Z</time></trkpt>
<trkpt lat="46.20584" lon="7.44213"><ele>1587.2</ele><time>2015-09-08T12:11:08Z</time></trkpt>
<trkpt lat="46.20582" lon="7.44185"><ele>1585.8</ele><time>2015-09-08T12:11:10Z</time></trkpt>
<trkpt lat="46.20578" lon="7.44157"><ele>1583.8</ele><time>2015-09-08T12:11:12Z</time></trkpt>
<trkpt lat="46.20572" lon="7.44131"><ele>1581.8</ele><time>2015-09-08T12:11:14Z</time></trkpt>
<trkpt lat="46.20563" lon="7.44108"><ele>1580.2</ele><time>2015-09-08T12:11:16Z</time></trkpt>
<trkpt lat="46.20551" lon="7.44087"><ele>1579.2</ele><time>2015-09-08T12:11:18Z</time></trkpt>
<trkpt lat="46.20535" lon="7.44069"><ele>1577.6</ele><time>2015-09-08T12:11:20Z</time></trkpt>
<trkpt lat="46.20519" lon="7.4405"><ele>1575.6</ele><time>2015-09-08T12:11:22Z</time></trkpt>
<trkpt lat="46.20502" lon="7.44032"><ele>1573.4</ele><time>2015-09-08T12:11:24Z</time></trkpt>
<trkpt lat="46.20485" lon="7.44014"><ele>1571.2</ele><time>2015-09-08T12:11:26Z</time></trkpt>
<trkpt lat="46.20469" lon="7.43997"><ele>1569.4</ele><time>2015-09-08T12:11:28Z</time></trkpt>
<trkpt lat="46.20451" lon="7.43977"><ele>1567.6</ele><time>2015-09-08T12:11:31Z</time></trkpt>
<trkpt lat="46.20451" lon="7.4396"><ele>1564.8</ele><time>2015-09-08T12:11:34Z</time></trkpt>
<trkpt lat="46.20473" lon="7.43972"><ele>1561.8</ele><time>2015-09-08T12:11:38Z</time></trkpt>
<trkpt lat="46.20479" lon="7.43976"><ele>1561.6</ele><time>2015-09-08T12:11:39Z</time></trkpt>
<trkpt lat="46.20486" lon="7.43979"><ele>1561</ele><time>2015-09-08T12:11:40Z</time></trkpt>
<trkpt lat="46.20507" lon="7.4399"><ele>1560.2</ele><time>2015-09-08T12:11:43Z</time></trkpt>
<trkpt lat="46.20529" lon="7.44004"><ele>1559.8</ele><time>2015-09-08T12:11:46Z</time></trkpt>
<trkpt lat="46.20548" lon="7.44018"><ele>1559.2</ele><time>2015-09-08T12:11:49Z</time></trkpt>
<trkpt lat="46.20566" lon="7.4403"><ele>1557.2</ele><time>2015-09-08T12:11:52Z</time></trkpt>
<trkpt lat="46.2058" lon="7.44035"><ele>1555</ele><time>2015-09-08T12:11:56Z</time></trkpt>
<trkpt lat="46.20574" lon="7.44018"><ele>1550</ele><time>2015-09-08T12:12:02Z</time></trkpt>
<trkpt lat="46.20571" lon="7.44009"><ele>1548.4</ele><time>2015-09-08T12:12:04Z</time></trkpt>
<trkpt lat="46.20569" lon="7.44"><ele>1547.2</ele><time>2015-09-08T12:12:06Z</time></trkpt>
<trkpt lat="46.20569" lon="7.43978"><ele>1539.6</ele><time>2015-09-08T12:12:15Z</time></trkpt>
<trkpt lat="46.20571" lon="7.43975"><ele>1539</ele><time>2015-09-08T12:12:16Z</time></trkpt>
<trkpt lat="46.2058" lon="7.43965"><ele>1536</ele><time>2015-09-08T12:12:22Z</time></trkpt>
<trkpt lat="46.20581" lon="7.43964"><ele>1535.6</ele><time>2015-09-08T12:12:23Z</time></trkpt>
<trkpt lat="46.20582" lon="7.43963"><ele>1534.6</ele><time>2015-09-08T12:12:25Z</time></trkpt>
<trkpt lat="46.206" lon="7.43958"><ele>1535.4</ele><time>2015-09-08T12:12:48Z</time></trkpt>
<trkpt lat="46.20602" lon="7.43957"><ele>1535.2</ele><time>2015-09-08T12:12:50Z</time></trkpt>
<trkpt lat="46.20608" lon="7.43956"><ele>1534.4</ele><time>2015-09-08T12:12:55Z</time></trkpt>
<trkpt lat="46.2061" lon="7.43956"><ele>1534.2</ele><time>2015-09-08T12:12:56Z</time></trkpt>
<trkpt lat="46.20612" lon="7.43955"><ele>1533.4</ele><time>2015-09-08T12:12:58Z</time></trkpt>
<trkpt lat="46.20613" lon="7.43955"><ele>1533.2</ele><time>2015-09-08T12:12:59Z</time></trkpt>
<trkpt lat="46.20616" lon="7.43955"><ele>1532.4</ele><time>2015-09-08T12:13:03Z</time></trkpt>
<trkpt lat="46.20614" lon="7.43956"><ele>1529.4</ele><time>2015-09-08T12:13:15Z</time></trkpt>
<trkpt lat="46.20621" lon="7.43955"><ele>1528.6</ele><time>2015-09-08T12:13:21Z</time></trkpt>
<trkpt lat="46.2064" lon="7.43958"><ele>1527</ele><time>2015-09-08T12:13:28Z</time></trkpt>
<trkpt lat="46.2066" lon="7.43967"><ele>1522.6</ele><time>2015-09-08T12:13:35Z</time></trkpt>
<trkpt lat="46.20672" lon="7.43974"><ele>1517.4</ele><time>2015-09-08T12:13:40Z</time></trkpt>
<trkpt lat="46.20674" lon="7.43967"><ele>1506</ele><time>2015-09-08T12:14:09Z</time></trkpt>
</trkseg></trk></gpx>